<?xml version="1.0" encoding="UTF-8" standalone="no" ?>
<gpx xmlns="http://www.topografix.com/GPX/1/1" xmlns:xsi="http://www.w3.org/2001/XMLSchema-instance" xsi:schemaLocation="http://www.topografix.com/GPX/1/1 http://www.topografix.com/GPX/1/1/gpx.xsd" version="1.1" creator="VisuGPX - https://www.visugpx.com">
  <metadata>
    <name>BUTHIERS 2017</name>
    <desc><![CDATA[Trace VTT sur les  sentiers de la base de loisir de Buthiers]]></desc>
  </metadata>
  <trk>
    <name><![CDATA[20180119145023-jcoxe]]></name>
    <trkseg>
      <trkpt lat="48.29504" lon="2.42922">
        <ele>86</ele>
        <time>2017-05-07T07:22:41.000Z</time>
      </trkpt>
      <trkpt lat="48.295" lon="2.42942">
        <ele>87</ele>
        <time>2017-05-07T07:22:46.000Z</time>
      </trkpt>
      <trkpt lat="48.29503" lon="2.42973">
        <ele>87</ele>
        <time>2017-05-07T07:22:51.000Z</time>
      </trkpt>
      <trkpt lat="48.2951" lon="2.42997">
        <ele>86</ele>
        <time>2017-05-07T07:22:56.000Z</time>
      </trkpt>
      <trkpt lat="48.29517" lon="2.43011">
        <ele>87</ele>
        <time>2017-05-07T07:23:00.000Z</time>
      </trkpt>
      <trkpt lat="48.29515" lon="2.4302">
        <ele>87</ele>
        <time>2017-05-07T07:23:03.000Z</time>
      </trkpt>
      <trkpt lat="48.29514" lon="2.43048">
        <ele>87</ele>
        <time>2017-05-07T07:23:08.000Z</time>
      </trkpt>
      <trkpt lat="48.29514" lon="2.43054">
        <ele>87</ele>
        <time>2017-05-07T07:23:09.000Z</time>
      </trkpt>
      <trkpt lat="48.29519" lon="2.43088">
        <ele>87</ele>
        <time>2017-05-07T07:23:15.000Z</time>
      </trkpt>
      <trkpt lat="48.29527" lon="2.43114">
        <ele>88</ele>
        <time>2017-05-07T07:23:20.000Z</time>
      </trkpt>
      <trkpt lat="48.29533" lon="2.43134">
        <ele>88</ele>
        <time>2017-05-07T07:23:25.000Z</time>
      </trkpt>
      <trkpt lat="48.29536" lon="2.43139">
        <ele>88</ele>
        <time>2017-05-07T07:23:26.000Z</time>
      </trkpt>
      <trkpt lat="48.29544" lon="2.43153">
        <ele>89</ele>
        <time>2017-05-07T07:23:29.000Z</time>
      </trkpt>
      <trkpt lat="48.29544" lon="2.43159">
        <ele>89</ele>
        <time>2017-05-07T07:23:30.000Z</time>
      </trkpt>
      <trkpt lat="48.29541" lon="2.43172">
        <ele>88</ele>
        <time>2017-05-07T07:23:33.000Z</time>
      </trkpt>
      <trkpt lat="48.29537" lon="2.43185">
        <ele>88</ele>
        <time>2017-05-07T07:23:35.000Z</time>
      </trkpt>
      <trkpt lat="48.29535" lon="2.4319">
        <ele>88</ele>
        <time>2017-05-07T07:23:36.000Z</time>
      </trkpt>
      <trkpt lat="48.29532" lon="2.43194">
        <ele>87</ele>
        <time>2017-05-07T07:23:37.000Z</time>
      </trkpt>
      <trkpt lat="48.29525" lon="2.43206">
        <ele>87</ele>
        <time>2017-05-07T07:23:40.000Z</time>
      </trkpt>
      <trkpt lat="48.29525" lon="2.43212">
        <ele>87</ele>
        <time>2017-05-07T07:23:41.000Z</time>
      </trkpt>
      <trkpt lat="48.2953" lon="2.43233">
        <ele>87</ele>
        <time>2017-05-07T07:23:45.000Z</time>
      </trkpt>
      <trkpt lat="48.29531" lon="2.43239">
        <ele>87</ele>
        <time>2017-05-07T07:23:46.000Z</time>
      </trkpt>
      <trkpt lat="48.29539" lon="2.43257">
        <ele>88</ele>
        <time>2017-05-07T07:23:50.000Z</time>
      </trkpt>
      <trkpt lat="48.29543" lon="2.43266">
        <ele>88</ele>
        <time>2017-05-07T07:23:52.000Z</time>
      </trkpt>
      <trkpt lat="48.29548" lon="2.43282">
        <ele>88</ele>
        <time>2017-05-07T07:23:55.000Z</time>
      </trkpt>
      <trkpt lat="48.29554" lon="2.43293">
        <ele>89</ele>
        <time>2017-05-07T07:23:58.000Z</time>
      </trkpt>
      <trkpt lat="48.29557" lon="2.43295">
        <ele>89</ele>
        <time>2017-05-07T07:23:59.000Z</time>
      </trkpt>
      <trkpt lat="48.29558" lon="2.43299">
        <ele>89</ele>
        <time>2017-05-07T07:24:00.000Z</time>
      </trkpt>
      <trkpt lat="48.29559" lon="2.4331">
        <ele>89</ele>
        <time>2017-05-07T07:24:02.000Z</time>
      </trkpt>
      <trkpt lat="48.29558" lon="2.4333">
        <ele>89</ele>
        <time>2017-05-07T07:24:06.000Z</time>
      </trkpt>
      <trkpt lat="48.29555" lon="2.43333">
        <ele>89</ele>
        <time>2017-05-07T07:24:07.000Z</time>
      </trkpt>
      <trkpt lat="48.29547" lon="2.43346">
        <ele>89</ele>
        <time>2017-05-07T07:24:11.000Z</time>
      </trkpt>
      <trkpt lat="48.29539" lon="2.43349">
        <ele>89</ele>
        <time>2017-05-07T07:24:14.000Z</time>
      </trkpt>
      <trkpt lat="48.29535" lon="2.43347">
        <ele>88</ele>
        <time>2017-05-07T07:24:15.000Z</time>
      </trkpt>
      <trkpt lat="48.29533" lon="2.43342">
        <ele>88</ele>
        <time>2017-05-07T07:24:17.000Z</time>
      </trkpt>
      <trkpt lat="48.29534" lon="2.43339">
        <ele>88</ele>
        <time>2017-05-07T07:24:18.000Z</time>
      </trkpt>
      <trkpt lat="48.29542" lon="2.4333">
        <ele>88</ele>
        <time>2017-05-07T07:24:22.000Z</time>
      </trkpt>
      <trkpt lat="48.29546" lon="2.43323">
        <ele>88</ele>
        <time>2017-05-07T07:24:26.000Z</time>
      </trkpt>
      <trkpt lat="48.29546" lon="2.4332">
        <ele>88</ele>
        <time>2017-05-07T07:24:27.000Z</time>
      </trkpt>
      <trkpt lat="48.29546" lon="2.43318">
        <ele>88</ele>
        <time>2017-05-07T07:24:28.000Z</time>
      </trkpt>
      <trkpt lat="48.29544" lon="2.43314">
        <ele>88</ele>
        <time>2017-05-07T07:24:30.000Z</time>
      </trkpt>
      <trkpt lat="48.29544" lon="2.43313">
        <ele>88</ele>
        <time>2017-05-07T07:24:32.000Z</time>
      </trkpt>
      <trkpt lat="48.29543" lon="2.43313">
        <ele>88</ele>
        <time>2017-05-07T07:24:35.000Z</time>
      </trkpt>
      <trkpt lat="48.29542" lon="2.43312">
        <ele>88</ele>
        <time>2017-05-07T07:24:41.000Z</time>
      </trkpt>
      <trkpt lat="48.2954" lon="2.43312">
        <ele>88</ele>
        <time>2017-05-07T07:24:42.000Z</time>
      </trkpt>
      <trkpt lat="48.2954" lon="2.43313">
        <ele>88</ele>
        <time>2017-05-07T07:24:44.000Z</time>
      </trkpt>
      <trkpt lat="48.29538" lon="2.43317">
        <ele>88</ele>
        <time>2017-05-07T07:24:46.000Z</time>
      </trkpt>
      <trkpt lat="48.29533" lon="2.43317">
        <ele>88</ele>
        <time>2017-05-07T07:24:48.000Z</time>
      </trkpt>
      <trkpt lat="48.29532" lon="2.43317">
        <ele>88</ele>
        <time>2017-05-07T07:24:49.000Z</time>
      </trkpt>
      <trkpt lat="48.29532" lon="2.43317">
        <ele>88</ele>
        <time>2017-05-07T07:24:50.000Z</time>
      </trkpt>
      <trkpt lat="48.29526" lon="2.43315">
        <ele>87</ele>
        <time>2017-05-07T07:24:54.000Z</time>
      </trkpt>
      <trkpt lat="48.29525" lon="2.43315">
        <ele>87</ele>
        <time>2017-05-07T07:24:56.000Z</time>
      </trkpt>
      <trkpt lat="48.29523" lon="2.43316">
        <ele>87</ele>
        <time>2017-05-07T07:24:57.000Z</time>
      </trkpt>
      <trkpt lat="48.2952" lon="2.43317">
        <ele>87</ele>
        <time>2017-05-07T07:25:01.000Z</time>
      </trkpt>
      <trkpt lat="48.29518" lon="2.43317">
        <ele>87</ele>
        <time>2017-05-07T07:25:03.000Z</time>
      </trkpt>
      <trkpt lat="48.29516" lon="2.43315">
        <ele>87</ele>
        <time>2017-05-07T07:25:05.000Z</time>
      </trkpt>
      <trkpt lat="48.29516" lon="2.43314">
        <ele>87</ele>
        <time>2017-05-07T07:25:06.000Z</time>
      </trkpt>
      <trkpt lat="48.29515" lon="2.43312">
        <ele>87</ele>
        <time>2017-05-07T07:25:07.000Z</time>
      </trkpt>
      <trkpt lat="48.29513" lon="2.43308">
        <ele>87</ele>
        <time>2017-05-07T07:25:11.000Z</time>
      </trkpt>
      <trkpt lat="48.29512" lon="2.43306">
        <ele>87</ele>
        <time>2017-05-07T07:25:13.000Z</time>
      </trkpt>
      <trkpt lat="48.29513" lon="2.43301">
        <ele>87</ele>
        <time>2017-05-07T07:25:16.000Z</time>
      </trkpt>
      <trkpt lat="48.29513" lon="2.43301">
        <ele>87</ele>
        <time>2017-05-07T07:25:22.000Z</time>
      </trkpt>
      <trkpt lat="48.29512" lon="2.43298">
        <ele>87</ele>
        <time>2017-05-07T07:25:23.000Z</time>
      </trkpt>
      <trkpt lat="48.29511" lon="2.43287">
        <ele>87</ele>
        <time>2017-05-07T07:25:26.000Z</time>
      </trkpt>
      <trkpt lat="48.29497" lon="2.43275">
        <ele>81</ele>
        <time>2017-05-07T07:25:30.000Z</time>
      </trkpt>
      <trkpt lat="48.29492" lon="2.43276">
        <ele>81</ele>
        <time>2017-05-07T07:25:31.000Z</time>
      </trkpt>
      <trkpt lat="48.29485" lon="2.43276">
        <ele>80</ele>
        <time>2017-05-07T07:25:33.000Z</time>
      </trkpt>
      <trkpt lat="48.29471" lon="2.43278">
        <ele>80</ele>
        <time>2017-05-07T07:25:38.000Z</time>
      </trkpt>
      <trkpt lat="48.29466" lon="2.43285">
        <ele>79</ele>
        <time>2017-05-07T07:25:42.000Z</time>
      </trkpt>
      <trkpt lat="48.29458" lon="2.43284">
        <ele>79</ele>
        <time>2017-05-07T07:25:46.000Z</time>
      </trkpt>
      <trkpt lat="48.29456" lon="2.43284">
        <ele>79</ele>
        <time>2017-05-07T07:25:47.000Z</time>
      </trkpt>
      <trkpt lat="48.29453" lon="2.43286">
        <ele>79</ele>
        <time>2017-05-07T07:25:49.000Z</time>
      </trkpt>
      <trkpt lat="48.29451" lon="2.43287">
        <ele>79</ele>
        <time>2017-05-07T07:25:50.000Z</time>
      </trkpt>
      <trkpt lat="48.29449" lon="2.43288">
        <ele>78</ele>
        <time>2017-05-07T07:25:51.000Z</time>
      </trkpt>
      <trkpt lat="48.29446" lon="2.43292">
        <ele>78</ele>
        <time>2017-05-07T07:25:53.000Z</time>
      </trkpt>
      <trkpt lat="48.29445" lon="2.433">
        <ele>78</ele>
        <time>2017-05-07T07:25:55.000Z</time>
      </trkpt>
      <trkpt lat="48.29447" lon="2.43311">
        <ele>78</ele>
        <time>2017-05-07T07:25:57.000Z</time>
      </trkpt>
      <trkpt lat="48.29448" lon="2.43315">
        <ele>78</ele>
        <time>2017-05-07T07:25:58.000Z</time>
      </trkpt>
      <trkpt lat="48.29451" lon="2.43323">
        <ele>79</ele>
        <time>2017-05-07T07:26:00.000Z</time>
      </trkpt>
      <trkpt lat="48.29452" lon="2.43328">
        <ele>79</ele>
        <time>2017-05-07T07:26:01.000Z</time>
      </trkpt>
      <trkpt lat="48.29451" lon="2.43345">
        <ele>79</ele>
        <time>2017-05-07T07:26:04.000Z</time>
      </trkpt>
      <trkpt lat="48.29451" lon="2.43375">
        <ele>79</ele>
        <time>2017-05-07T07:26:09.000Z</time>
      </trkpt>
      <trkpt lat="48.29452" lon="2.43389">
        <ele>79</ele>
        <time>2017-05-07T07:26:11.000Z</time>
      </trkpt>
      <trkpt lat="48.29454" lon="2.43406">
        <ele>79</ele>
        <time>2017-05-07T07:26:14.000Z</time>
      </trkpt>
      <trkpt lat="48.29457" lon="2.43429">
        <ele>80</ele>
        <time>2017-05-07T07:26:18.000Z</time>
      </trkpt>
      <trkpt lat="48.29462" lon="2.43442">
        <ele>80</ele>
        <time>2017-05-07T07:26:22.000Z</time>
      </trkpt>
      <trkpt lat="48.29464" lon="2.43444">
        <ele>80</ele>
        <time>2017-05-07T07:26:23.000Z</time>
      </trkpt>
      <trkpt lat="48.29467" lon="2.43451">
        <ele>80</ele>
        <time>2017-05-07T07:26:26.000Z</time>
      </trkpt>
      <trkpt lat="48.29467" lon="2.4345">
        <ele>80</ele>
        <time>2017-05-07T07:26:27.000Z</time>
      </trkpt>
      <trkpt lat="48.29466" lon="2.43456">
        <ele>80</ele>
        <time>2017-05-07T07:26:30.000Z</time>
      </trkpt>
      <trkpt lat="48.29466" lon="2.43459">
        <ele>80</ele>
        <time>2017-05-07T07:26:31.000Z</time>
      </trkpt>
      <trkpt lat="48.29463" lon="2.4347">
        <ele>80</ele>
        <time>2017-05-07T07:26:34.000Z</time>
      </trkpt>
      <trkpt lat="48.29461" lon="2.43478">
        <ele>80</ele>
        <time>2017-05-07T07:26:36.000Z</time>
      </trkpt>
      <trkpt lat="48.2946" lon="2.43486">
        <ele>80</ele>
        <time>2017-05-07T07:26:38.000Z</time>
      </trkpt>
      <trkpt lat="48.29461" lon="2.43491">
        <ele>80</ele>
        <time>2017-05-07T07:26:39.000Z</time>
      </trkpt>
      <trkpt lat="48.29463" lon="2.4351">
        <ele>81</ele>
        <time>2017-05-07T07:26:44.000Z</time>
      </trkpt>
      <trkpt lat="48.29464" lon="2.43529">
        <ele>81</ele>
        <time>2017-05-07T07:26:49.000Z</time>
      </trkpt>
      <trkpt lat="48.29464" lon="2.43534">
        <ele>81</ele>
        <time>2017-05-07T07:26:50.000Z</time>
      </trkpt>
      <trkpt lat="48.29469" lon="2.43557">
        <ele>81</ele>
        <time>2017-05-07T07:26:55.000Z</time>
      </trkpt>
      <trkpt lat="48.29471" lon="2.43559">
        <ele>81</ele>
        <time>2017-05-07T07:26:56.000Z</time>
      </trkpt>
      <trkpt lat="48.29481" lon="2.43565">
        <ele>81</ele>
        <time>2017-05-07T07:27:00.000Z</time>
      </trkpt>
      <trkpt lat="48.29485" lon="2.43581">
        <ele>82</ele>
        <time>2017-05-07T07:27:04.000Z</time>
      </trkpt>
      <trkpt lat="48.29486" lon="2.43599">
        <ele>81</ele>
        <time>2017-05-07T07:27:08.000Z</time>
      </trkpt>
      <trkpt lat="48.29487" lon="2.43628">
        <ele>80</ele>
        <time>2017-05-07T07:27:14.000Z</time>
      </trkpt>
      <trkpt lat="48.29484" lon="2.43654">
        <ele>79</ele>
        <time>2017-05-07T07:27:19.000Z</time>
      </trkpt>
      <trkpt lat="48.29474" lon="2.4367">
        <ele>79</ele>
        <time>2017-05-07T07:27:23.000Z</time>
      </trkpt>
      <trkpt lat="48.29462" lon="2.43684">
        <ele>79</ele>
        <time>2017-05-07T07:27:27.000Z</time>
      </trkpt>
      <trkpt lat="48.29454" lon="2.4371">
        <ele>79</ele>
        <time>2017-05-07T07:27:32.000Z</time>
      </trkpt>
      <trkpt lat="48.29448" lon="2.43736">
        <ele>79</ele>
        <time>2017-05-07T07:27:37.000Z</time>
      </trkpt>
      <trkpt lat="48.29442" lon="2.43758">
        <ele>81</ele>
        <time>2017-05-07T07:27:42.000Z</time>
      </trkpt>
      <trkpt lat="48.29446" lon="2.43769">
        <ele>82</ele>
        <time>2017-05-07T07:27:45.000Z</time>
      </trkpt>
      <trkpt lat="48.29447" lon="2.43772">
        <ele>82</ele>
        <time>2017-05-07T07:27:46.000Z</time>
      </trkpt>
      <trkpt lat="48.29448" lon="2.43779">
        <ele>82</ele>
        <time>2017-05-07T07:27:48.000Z</time>
      </trkpt>
      <trkpt lat="48.29448" lon="2.43783">
        <ele>82</ele>
        <time>2017-05-07T07:27:49.000Z</time>
      </trkpt>
      <trkpt lat="48.29451" lon="2.43792">
        <ele>82</ele>
        <time>2017-05-07T07:27:53.000Z</time>
      </trkpt>
      <trkpt lat="48.29451" lon="2.43798">
        <ele>83</ele>
        <time>2017-05-07T07:27:55.000Z</time>
      </trkpt>
      <trkpt lat="48.29457" lon="2.43812">
        <ele>83</ele>
        <time>2017-05-07T07:27:58.000Z</time>
      </trkpt>
      <trkpt lat="48.29458" lon="2.43816">
        <ele>83</ele>
        <time>2017-05-07T07:27:59.000Z</time>
      </trkpt>
      <trkpt lat="48.2946" lon="2.43819">
        <ele>83</ele>
        <time>2017-05-07T07:28:00.000Z</time>
      </trkpt>
      <trkpt lat="48.29462" lon="2.43823">
        <ele>83</ele>
        <time>2017-05-07T07:28:01.000Z</time>
      </trkpt>
      <trkpt lat="48.29462" lon="2.43828">
        <ele>83</ele>
        <time>2017-05-07T07:28:02.000Z</time>
      </trkpt>
      <trkpt lat="48.29464" lon="2.43835">
        <ele>85</ele>
        <time>2017-05-07T07:28:04.000Z</time>
      </trkpt>
      <trkpt lat="48.29464" lon="2.43843">
        <ele>85</ele>
        <time>2017-05-07T07:28:06.000Z</time>
      </trkpt>
      <trkpt lat="48.29467" lon="2.43858">
        <ele>85</ele>
        <time>2017-05-07T07:28:10.000Z</time>
      </trkpt>
      <trkpt lat="48.29473" lon="2.43884">
        <ele>85</ele>
        <time>2017-05-07T07:28:15.000Z</time>
      </trkpt>
      <trkpt lat="48.29478" lon="2.43915">
        <ele>85</ele>
        <time>2017-05-07T07:28:21.000Z</time>
      </trkpt>
      <trkpt lat="48.29478" lon="2.43918">
        <ele>85</ele>
        <time>2017-05-07T07:28:24.000Z</time>
      </trkpt>
      <trkpt lat="48.29477" lon="2.43921">
        <ele>86</ele>
        <time>2017-05-07T07:28:31.000Z</time>
      </trkpt>
      <trkpt lat="48.29476" lon="2.43927">
        <ele>86</ele>
        <time>2017-05-07T07:28:35.000Z</time>
      </trkpt>
      <trkpt lat="48.29474" lon="2.43933">
        <ele>86</ele>
        <time>2017-05-07T07:28:37.000Z</time>
      </trkpt>
      <trkpt lat="48.29475" lon="2.43946">
        <ele>86</ele>
        <time>2017-05-07T07:28:41.000Z</time>
      </trkpt>
      <trkpt lat="48.29475" lon="2.4395">
        <ele>86</ele>
        <time>2017-05-07T07:28:42.000Z</time>
      </trkpt>
      <trkpt lat="48.29479" lon="2.43967">
        <ele>86</ele>
        <time>2017-05-07T07:28:46.000Z</time>
      </trkpt>
      <trkpt lat="48.29478" lon="2.4397">
        <ele>86</ele>
        <time>2017-05-07T07:28:47.000Z</time>
      </trkpt>
      <trkpt lat="48.29478" lon="2.43976">
        <ele>85</ele>
        <time>2017-05-07T07:28:49.000Z</time>
      </trkpt>
      <trkpt lat="48.29478" lon="2.43979">
        <ele>85</ele>
        <time>2017-05-07T07:28:50.000Z</time>
      </trkpt>
      <trkpt lat="48.29478" lon="2.43989">
        <ele>85</ele>
        <time>2017-05-07T07:28:53.000Z</time>
      </trkpt>
      <trkpt lat="48.29475" lon="2.44">
        <ele>85</ele>
        <time>2017-05-07T07:28:56.000Z</time>
      </trkpt>
      <trkpt lat="48.29466" lon="2.44015">
        <ele>86</ele>
        <time>2017-05-07T07:29:02.000Z</time>
      </trkpt>
      <trkpt lat="48.29464" lon="2.44016">
        <ele>86</ele>
        <time>2017-05-07T07:29:03.000Z</time>
      </trkpt>
      <trkpt lat="48.29461" lon="2.44019">
        <ele>86</ele>
        <time>2017-05-07T07:29:06.000Z</time>
      </trkpt>
      <trkpt lat="48.29458" lon="2.44019">
        <ele>86</ele>
        <time>2017-05-07T07:29:10.000Z</time>
      </trkpt>
      <trkpt lat="48.29457" lon="2.44016">
        <ele>86</ele>
        <time>2017-05-07T07:29:12.000Z</time>
      </trkpt>
      <trkpt lat="48.29455" lon="2.44012">
        <ele>86</ele>
        <time>2017-05-07T07:29:15.000Z</time>
      </trkpt>
      <trkpt lat="48.29452" lon="2.44014">
        <ele>86</ele>
        <time>2017-05-07T07:29:18.000Z</time>
      </trkpt>
      <trkpt lat="48.29451" lon="2.44014">
        <ele>87</ele>
        <time>2017-05-07T07:29:19.000Z</time>
      </trkpt>
      <trkpt lat="48.29447" lon="2.44015">
        <ele>87</ele>
        <time>2017-05-07T07:29:23.000Z</time>
      </trkpt>
      <trkpt lat="48.29446" lon="2.44016">
        <ele>87</ele>
        <time>2017-05-07T07:29:24.000Z</time>
      </trkpt>
      <trkpt lat="48.29441" lon="2.44016">
        <ele>87</ele>
        <time>2017-05-07T07:29:27.000Z</time>
      </trkpt>
      <trkpt lat="48.29439" lon="2.44015">
        <ele>87</ele>
        <time>2017-05-07T07:29:28.000Z</time>
      </trkpt>
      <trkpt lat="48.29428" lon="2.44013">
        <ele>88</ele>
        <time>2017-05-07T07:29:34.000Z</time>
      </trkpt>
      <trkpt lat="48.2941" lon="2.44001">
        <ele>90</ele>
        <time>2017-05-07T07:29:42.000Z</time>
      </trkpt>
      <trkpt lat="48.29406" lon="2.43996">
        <ele>89</ele>
        <time>2017-05-07T07:29:44.000Z</time>
      </trkpt>
      <trkpt lat="48.29398" lon="2.43988">
        <ele>89</ele>
        <time>2017-05-07T07:29:48.000Z</time>
      </trkpt>
      <trkpt lat="48.2939" lon="2.43983">
        <ele>89</ele>
        <time>2017-05-07T07:29:52.000Z</time>
      </trkpt>
      <trkpt lat="48.29388" lon="2.43983">
        <ele>89</ele>
        <time>2017-05-07T07:29:53.000Z</time>
      </trkpt>
      <trkpt lat="48.29377" lon="2.43986">
        <ele>89</ele>
        <time>2017-05-07T07:29:59.000Z</time>
      </trkpt>
      <trkpt lat="48.29367" lon="2.43989">
        <ele>90</ele>
        <time>2017-05-07T07:30:03.000Z</time>
      </trkpt>
      <trkpt lat="48.29365" lon="2.43989">
        <ele>90</ele>
        <time>2017-05-07T07:30:04.000Z</time>
      </trkpt>
      <trkpt lat="48.29353" lon="2.43984">
        <ele>90</ele>
        <time>2017-05-07T07:30:11.000Z</time>
      </trkpt>
      <trkpt lat="48.29347" lon="2.43986">
        <ele>90</ele>
        <time>2017-05-07T07:30:15.000Z</time>
      </trkpt>
      <trkpt lat="48.29347" lon="2.43988">
        <ele>90</ele>
        <time>2017-05-07T07:30:16.000Z</time>
      </trkpt>
      <trkpt lat="48.29345" lon="2.43991">
        <ele>91</ele>
        <time>2017-05-07T07:30:18.000Z</time>
      </trkpt>
      <trkpt lat="48.29343" lon="2.43997">
        <ele>91</ele>
        <time>2017-05-07T07:30:22.000Z</time>
      </trkpt>
      <trkpt lat="48.29342" lon="2.44001">
        <ele>92</ele>
        <time>2017-05-07T07:30:24.000Z</time>
      </trkpt>
      <trkpt lat="48.29343" lon="2.44003">
        <ele>92</ele>
        <time>2017-05-07T07:30:26.000Z</time>
      </trkpt>
      <trkpt lat="48.29344" lon="2.44009">
        <ele>92</ele>
        <time>2017-05-07T07:30:30.000Z</time>
      </trkpt>
      <trkpt lat="48.29343" lon="2.44012">
        <ele>92</ele>
        <time>2017-05-07T07:30:32.000Z</time>
      </trkpt>
      <trkpt lat="48.29342" lon="2.44018">
        <ele>93</ele>
        <time>2017-05-07T07:30:35.000Z</time>
      </trkpt>
      <trkpt lat="48.29341" lon="2.44023">
        <ele>93</ele>
        <time>2017-05-07T07:30:38.000Z</time>
      </trkpt>
      <trkpt lat="48.2934" lon="2.44027">
        <ele>93</ele>
        <time>2017-05-07T07:30:41.000Z</time>
      </trkpt>
      <trkpt lat="48.2934" lon="2.4403">
        <ele>93</ele>
        <time>2017-05-07T07:30:43.000Z</time>
      </trkpt>
      <trkpt lat="48.29338" lon="2.44032">
        <ele>93</ele>
        <time>2017-05-07T07:30:47.000Z</time>
      </trkpt>
      <trkpt lat="48.29337" lon="2.44033">
        <ele>93</ele>
        <time>2017-05-07T07:30:48.000Z</time>
      </trkpt>
      <trkpt lat="48.29333" lon="2.44033">
        <ele>94</ele>
        <time>2017-05-07T07:30:53.000Z</time>
      </trkpt>
      <trkpt lat="48.29329" lon="2.44034">
        <ele>94</ele>
        <time>2017-05-07T07:30:58.000Z</time>
      </trkpt>
      <trkpt lat="48.29328" lon="2.44034">
        <ele>94</ele>
        <time>2017-05-07T07:31:00.000Z</time>
      </trkpt>
      <trkpt lat="48.29326" lon="2.44034">
        <ele>94</ele>
        <time>2017-05-07T07:31:02.000Z</time>
      </trkpt>
      <trkpt lat="48.29322" lon="2.44037">
        <ele>94</ele>
        <time>2017-05-07T07:31:04.000Z</time>
      </trkpt>
      <trkpt lat="48.29318" lon="2.4404">
        <ele>94</ele>
        <time>2017-05-07T07:31:07.000Z</time>
      </trkpt>
      <trkpt lat="48.29313" lon="2.44042">
        <ele>95</ele>
        <time>2017-05-07T07:31:10.000Z</time>
      </trkpt>
      <trkpt lat="48.29312" lon="2.44044">
        <ele>95</ele>
        <time>2017-05-07T07:31:11.000Z</time>
      </trkpt>
      <trkpt lat="48.29309" lon="2.44046">
        <ele>95</ele>
        <time>2017-05-07T07:31:13.000Z</time>
      </trkpt>
      <trkpt lat="48.29306" lon="2.44049">
        <ele>95</ele>
        <time>2017-05-07T07:31:16.000Z</time>
      </trkpt>
      <trkpt lat="48.29302" lon="2.44051">
        <ele>95</ele>
        <time>2017-05-07T07:31:19.000Z</time>
      </trkpt>
      <trkpt lat="48.29301" lon="2.44052">
        <ele>95</ele>
        <time>2017-05-07T07:31:20.000Z</time>
      </trkpt>
      <trkpt lat="48.29299" lon="2.44054">
        <ele>95</ele>
        <time>2017-05-07T07:31:21.000Z</time>
      </trkpt>
      <trkpt lat="48.29296" lon="2.44061">
        <ele>95</ele>
        <time>2017-05-07T07:31:24.000Z</time>
      </trkpt>
      <trkpt lat="48.29295" lon="2.44064">
        <ele>95</ele>
        <time>2017-05-07T07:31:25.000Z</time>
      </trkpt>
      <trkpt lat="48.29292" lon="2.44072">
        <ele>95</ele>
        <time>2017-05-07T07:31:28.000Z</time>
      </trkpt>
      <trkpt lat="48.29291" lon="2.44076">
        <ele>95</ele>
        <time>2017-05-07T07:31:30.000Z</time>
      </trkpt>
      <trkpt lat="48.29283" lon="2.44089">
        <ele>101</ele>
        <time>2017-05-07T07:31:36.000Z</time>
      </trkpt>
      <trkpt lat="48.29277" lon="2.441">
        <ele>101</ele>
        <time>2017-05-07T07:31:40.000Z</time>
      </trkpt>
      <trkpt lat="48.29271" lon="2.44106">
        <ele>101</ele>
        <time>2017-05-07T07:31:42.000Z</time>
      </trkpt>
      <trkpt lat="48.29262" lon="2.44131">
        <ele>104</ele>
        <time>2017-05-07T07:31:47.000Z</time>
      </trkpt>
      <trkpt lat="48.29257" lon="2.44148">
        <ele>106</ele>
        <time>2017-05-07T07:31:51.000Z</time>
      </trkpt>
      <trkpt lat="48.29255" lon="2.4415">
        <ele>106</ele>
        <time>2017-05-07T07:31:52.000Z</time>
      </trkpt>
      <trkpt lat="48.29246" lon="2.44158">
        <ele>106</ele>
        <time>2017-05-07T07:31:55.000Z</time>
      </trkpt>
      <trkpt lat="48.29237" lon="2.4416">
        <ele>104</ele>
        <time>2017-05-07T07:31:57.000Z</time>
      </trkpt>
      <trkpt lat="48.29227" lon="2.44163">
        <ele>103</ele>
        <time>2017-05-07T07:31:59.000Z</time>
      </trkpt>
      <trkpt lat="48.29221" lon="2.44167">
        <ele>102</ele>
        <time>2017-05-07T07:32:00.000Z</time>
      </trkpt>
      <trkpt lat="48.29206" lon="2.44168">
        <ele>107</ele>
        <time>2017-05-07T07:32:04.000Z</time>
      </trkpt>
      <trkpt lat="48.29197" lon="2.44172">
        <ele>106</ele>
        <time>2017-05-07T07:32:07.000Z</time>
      </trkpt>
      <trkpt lat="48.29188" lon="2.44171">
        <ele>105</ele>
        <time>2017-05-07T07:32:11.000Z</time>
      </trkpt>
      <trkpt lat="48.29186" lon="2.44171">
        <ele>104</ele>
        <time>2017-05-07T07:32:12.000Z</time>
      </trkpt>
      <trkpt lat="48.29179" lon="2.4417">
        <ele>103</ele>
        <time>2017-05-07T07:32:15.000Z</time>
      </trkpt>
      <trkpt lat="48.29178" lon="2.44169">
        <ele>102</ele>
        <time>2017-05-07T07:32:16.000Z</time>
      </trkpt>
      <trkpt lat="48.29176" lon="2.44168">
        <ele>102</ele>
        <time>2017-05-07T07:32:17.000Z</time>
      </trkpt>
      <trkpt lat="48.29175" lon="2.44167">
        <ele>102</ele>
        <time>2017-05-07T07:32:18.000Z</time>
      </trkpt>
      <trkpt lat="48.29173" lon="2.44163">
        <ele>99</ele>
        <time>2017-05-07T07:32:20.000Z</time>
      </trkpt>
      <trkpt lat="48.29174" lon="2.4416">
        <ele>99</ele>
        <time>2017-05-07T07:32:21.000Z</time>
      </trkpt>
      <trkpt lat="48.29175" lon="2.44158">
        <ele>99</ele>
        <time>2017-05-07T07:32:22.000Z</time>
      </trkpt>
      <trkpt lat="48.29183" lon="2.44145">
        <ele>99</ele>
        <time>2017-05-07T07:32:26.000Z</time>
      </trkpt>
      <trkpt lat="48.29185" lon="2.44142">
        <ele>99</ele>
        <time>2017-05-07T07:32:27.000Z</time>
      </trkpt>
      <trkpt lat="48.29187" lon="2.44138">
        <ele>99</ele>
        <time>2017-05-07T07:32:29.000Z</time>
      </trkpt>
      <trkpt lat="48.29186" lon="2.4413">
        <ele>98</ele>
        <time>2017-05-07T07:32:31.000Z</time>
      </trkpt>
      <trkpt lat="48.29176" lon="2.44119">
        <ele>97</ele>
        <time>2017-05-07T07:32:34.000Z</time>
      </trkpt>
      <trkpt lat="48.29169" lon="2.44114">
        <ele>96</ele>
        <time>2017-05-07T07:32:36.000Z</time>
      </trkpt>
      <trkpt lat="48.29163" lon="2.44111">
        <ele>95</ele>
        <time>2017-05-07T07:32:38.000Z</time>
      </trkpt>
      <trkpt lat="48.29159" lon="2.44104">
        <ele>94</ele>
        <time>2017-05-07T07:32:40.000Z</time>
      </trkpt>
      <trkpt lat="48.2916" lon="2.441">
        <ele>94</ele>
        <time>2017-05-07T07:32:41.000Z</time>
      </trkpt>
      <trkpt lat="48.29162" lon="2.44092">
        <ele>93</ele>
        <time>2017-05-07T07:32:43.000Z</time>
      </trkpt>
      <trkpt lat="48.29162" lon="2.44087">
        <ele>92</ele>
        <time>2017-05-07T07:32:44.000Z</time>
      </trkpt>
      <trkpt lat="48.29163" lon="2.44083">
        <ele>92</ele>
        <time>2017-05-07T07:32:45.000Z</time>
      </trkpt>
      <trkpt lat="48.29164" lon="2.44073">
        <ele>92</ele>
        <time>2017-05-07T07:32:47.000Z</time>
      </trkpt>
      <trkpt lat="48.29168" lon="2.44064">
        <ele>92</ele>
        <time>2017-05-07T07:32:49.000Z</time>
      </trkpt>
      <trkpt lat="48.29174" lon="2.4406">
        <ele>92</ele>
        <time>2017-05-07T07:32:51.000Z</time>
      </trkpt>
      <trkpt lat="48.29183" lon="2.44046">
        <ele>92</ele>
        <time>2017-05-07T07:32:55.000Z</time>
      </trkpt>
      <trkpt lat="48.29185" lon="2.4403">
        <ele>92</ele>
        <time>2017-05-07T07:32:59.000Z</time>
      </trkpt>
      <trkpt lat="48.29184" lon="2.44032">
        <ele>92</ele>
        <time>2017-05-07T07:33:00.000Z</time>
      </trkpt>
      <trkpt lat="48.29185" lon="2.44028">
        <ele>92</ele>
        <time>2017-05-07T07:33:02.000Z</time>
      </trkpt>
      <trkpt lat="48.29185" lon="2.44027">
        <ele>92</ele>
        <time>2017-05-07T07:33:03.000Z</time>
      </trkpt>
      <trkpt lat="48.29185" lon="2.44021">
        <ele>92</ele>
        <time>2017-05-07T07:33:07.000Z</time>
      </trkpt>
      <trkpt lat="48.29186" lon="2.44018">
        <ele>92</ele>
        <time>2017-05-07T07:33:08.000Z</time>
      </trkpt>
      <trkpt lat="48.29186" lon="2.44015">
        <ele>92</ele>
        <time>2017-05-07T07:33:10.000Z</time>
      </trkpt>
      <trkpt lat="48.29185" lon="2.44011">
        <ele>92</ele>
        <time>2017-05-07T07:33:14.000Z</time>
      </trkpt>
      <trkpt lat="48.29183" lon="2.44009">
        <ele>92</ele>
        <time>2017-05-07T07:33:16.000Z</time>
      </trkpt>
      <trkpt lat="48.29182" lon="2.44006">
        <ele>92</ele>
        <time>2017-05-07T07:33:21.000Z</time>
      </trkpt>
      <trkpt lat="48.29182" lon="2.44006">
        <ele>92</ele>
        <time>2017-05-07T07:33:24.000Z</time>
      </trkpt>
      <trkpt lat="48.29181" lon="2.44005">
        <ele>92</ele>
        <time>2017-05-07T07:33:32.000Z</time>
      </trkpt>
      <trkpt lat="48.29178" lon="2.44001">
        <ele>92</ele>
        <time>2017-05-07T07:33:39.000Z</time>
      </trkpt>
      <trkpt lat="48.29171" lon="2.43995">
        <ele>91</ele>
        <time>2017-05-07T07:33:44.000Z</time>
      </trkpt>
      <trkpt lat="48.2917" lon="2.43994">
        <ele>91</ele>
        <time>2017-05-07T07:33:45.000Z</time>
      </trkpt>
      <trkpt lat="48.29169" lon="2.43993">
        <ele>91</ele>
        <time>2017-05-07T07:33:46.000Z</time>
      </trkpt>
      <trkpt lat="48.29164" lon="2.43985">
        <ele>94</ele>
        <time>2017-05-07T07:33:51.000Z</time>
      </trkpt>
      <trkpt lat="48.29162" lon="2.43983">
        <ele>94</ele>
        <time>2017-05-07T07:33:52.000Z</time>
      </trkpt>
      <trkpt lat="48.29156" lon="2.43976">
        <ele>95</ele>
        <time>2017-05-07T07:33:56.000Z</time>
      </trkpt>
      <trkpt lat="48.29153" lon="2.43963">
        <ele>95</ele>
        <time>2017-05-07T07:34:01.000Z</time>
      </trkpt>
      <trkpt lat="48.29151" lon="2.43955">
        <ele>95</ele>
        <time>2017-05-07T07:34:03.000Z</time>
      </trkpt>
      <trkpt lat="48.29148" lon="2.43943">
        <ele>95</ele>
        <time>2017-05-07T07:34:07.000Z</time>
      </trkpt>
      <trkpt lat="48.29148" lon="2.43938">
        <ele>95</ele>
        <time>2017-05-07T07:34:09.000Z</time>
      </trkpt>
      <trkpt lat="48.29146" lon="2.43926">
        <ele>95</ele>
        <time>2017-05-07T07:34:13.000Z</time>
      </trkpt>
      <trkpt lat="48.29145" lon="2.43915">
        <ele>96</ele>
        <time>2017-05-07T07:34:16.000Z</time>
      </trkpt>
      <trkpt lat="48.29145" lon="2.43903">
        <ele>96</ele>
        <time>2017-05-07T07:34:19.000Z</time>
      </trkpt>
      <trkpt lat="48.29141" lon="2.43891">
        <ele>96</ele>
        <time>2017-05-07T07:34:22.000Z</time>
      </trkpt>
      <trkpt lat="48.29139" lon="2.43886">
        <ele>97</ele>
        <time>2017-05-07T07:34:23.000Z</time>
      </trkpt>
      <trkpt lat="48.29133" lon="2.43859">
        <ele>97</ele>
        <time>2017-05-07T07:34:28.000Z</time>
      </trkpt>
      <trkpt lat="48.29131" lon="2.43831">
        <ele>96</ele>
        <time>2017-05-07T07:34:33.000Z</time>
      </trkpt>
      <trkpt lat="48.2913" lon="2.43823">
        <ele>96</ele>
        <time>2017-05-07T07:34:35.000Z</time>
      </trkpt>
      <trkpt lat="48.29126" lon="2.43817">
        <ele>97</ele>
        <time>2017-05-07T07:34:37.000Z</time>
      </trkpt>
      <trkpt lat="48.2912" lon="2.43803">
        <ele>97</ele>
        <time>2017-05-07T07:34:41.000Z</time>
      </trkpt>
      <trkpt lat="48.29125" lon="2.43781">
        <ele>96</ele>
        <time>2017-05-07T07:34:45.000Z</time>
      </trkpt>
      <trkpt lat="48.29131" lon="2.43758">
        <ele>95</ele>
        <time>2017-05-07T07:34:49.000Z</time>
      </trkpt>
      <trkpt lat="48.29134" lon="2.43752">
        <ele>95</ele>
        <time>2017-05-07T07:34:50.000Z</time>
      </trkpt>
      <trkpt lat="48.29137" lon="2.43746">
        <ele>93</ele>
        <time>2017-05-07T07:34:51.000Z</time>
      </trkpt>
      <trkpt lat="48.29141" lon="2.43742">
        <ele>93</ele>
        <time>2017-05-07T07:34:52.000Z</time>
      </trkpt>
      <trkpt lat="48.29153" lon="2.4373">
        <ele>92</ele>
        <time>2017-05-07T07:34:55.000Z</time>
      </trkpt>
      <trkpt lat="48.29156" lon="2.43724">
        <ele>92</ele>
        <time>2017-05-07T07:34:56.000Z</time>
      </trkpt>
      <trkpt lat="48.29157" lon="2.43709">
        <ele>92</ele>
        <time>2017-05-07T07:34:58.000Z</time>
      </trkpt>
      <trkpt lat="48.29154" lon="2.43702">
        <ele>92</ele>
        <time>2017-05-07T07:34:59.000Z</time>
      </trkpt>
      <trkpt lat="48.29149" lon="2.43687">
        <ele>92</ele>
        <time>2017-05-07T07:35:01.000Z</time>
      </trkpt>
      <trkpt lat="48.29147" lon="2.43679">
        <ele>92</ele>
        <time>2017-05-07T07:35:02.000Z</time>
      </trkpt>
      <trkpt lat="48.29145" lon="2.43668">
        <ele>92</ele>
        <time>2017-05-07T07:35:03.000Z</time>
      </trkpt>
      <trkpt lat="48.29142" lon="2.43648">
        <ele>92</ele>
        <time>2017-05-07T07:35:05.000Z</time>
      </trkpt>
      <trkpt lat="48.29141" lon="2.43638">
        <ele>92</ele>
        <time>2017-05-07T07:35:06.000Z</time>
      </trkpt>
      <trkpt lat="48.29141" lon="2.43617">
        <ele>92</ele>
        <time>2017-05-07T07:35:08.000Z</time>
      </trkpt>
      <trkpt lat="48.29141" lon="2.43597">
        <ele>92</ele>
        <time>2017-05-07T07:35:10.000Z</time>
      </trkpt>
      <trkpt lat="48.29141" lon="2.43566">
        <ele>90</ele>
        <time>2017-05-07T07:35:13.000Z</time>
      </trkpt>
      <trkpt lat="48.29147" lon="2.4354">
        <ele>89</ele>
        <time>2017-05-07T07:35:16.000Z</time>
      </trkpt>
      <trkpt lat="48.29149" lon="2.43523">
        <ele>88</ele>
        <time>2017-05-07T07:35:19.000Z</time>
      </trkpt>
      <trkpt lat="48.29149" lon="2.43517">
        <ele>87</ele>
        <time>2017-05-07T07:35:20.000Z</time>
      </trkpt>
      <trkpt lat="48.29142" lon="2.43499">
        <ele>86</ele>
        <time>2017-05-07T07:35:24.000Z</time>
      </trkpt>
      <trkpt lat="48.29137" lon="2.43491">
        <ele>87</ele>
        <time>2017-05-07T07:35:26.000Z</time>
      </trkpt>
      <trkpt lat="48.29133" lon="2.43479">
        <ele>87</ele>
        <time>2017-05-07T07:35:29.000Z</time>
      </trkpt>
      <trkpt lat="48.29131" lon="2.43472">
        <ele>88</ele>
        <time>2017-05-07T07:35:31.000Z</time>
      </trkpt>
      <trkpt lat="48.29132" lon="2.4347">
        <ele>87</ele>
        <time>2017-05-07T07:35:33.000Z</time>
      </trkpt>
      <trkpt lat="48.29133" lon="2.43465">
        <ele>87</ele>
        <time>2017-05-07T07:35:35.000Z</time>
      </trkpt>
      <trkpt lat="48.29133" lon="2.43463">
        <ele>87</ele>
        <time>2017-05-07T07:35:36.000Z</time>
      </trkpt>
      <trkpt lat="48.29132" lon="2.43457">
        <ele>87</ele>
        <time>2017-05-07T07:35:38.000Z</time>
      </trkpt>
      <trkpt lat="48.29132" lon="2.43453">
        <ele>87</ele>
        <time>2017-05-07T07:35:39.000Z</time>
      </trkpt>
      <trkpt lat="48.29137" lon="2.43437">
        <ele>86</ele>
        <time>2017-05-07T07:35:42.000Z</time>
      </trkpt>
      <trkpt lat="48.29142" lon="2.43422">
        <ele>85</ele>
        <time>2017-05-07T07:35:45.000Z</time>
      </trkpt>
      <trkpt lat="48.29144" lon="2.43411">
        <ele>84</ele>
        <time>2017-05-07T07:35:47.000Z</time>
      </trkpt>
      <trkpt lat="48.29144" lon="2.43404">
        <ele>84</ele>
        <time>2017-05-07T07:35:48.000Z</time>
      </trkpt>
      <trkpt lat="48.29143" lon="2.43398">
        <ele>84</ele>
        <time>2017-05-07T07:35:49.000Z</time>
      </trkpt>
      <trkpt lat="48.2914" lon="2.43384">
        <ele>85</ele>
        <time>2017-05-07T07:35:51.000Z</time>
      </trkpt>
      <trkpt lat="48.29141" lon="2.43377">
        <ele>85</ele>
        <time>2017-05-07T07:35:52.000Z</time>
      </trkpt>
      <trkpt lat="48.2914" lon="2.43369">
        <ele>84</ele>
        <time>2017-05-07T07:35:53.000Z</time>
      </trkpt>
      <trkpt lat="48.29138" lon="2.43356">
        <ele>84</ele>
        <time>2017-05-07T07:35:55.000Z</time>
      </trkpt>
      <trkpt lat="48.29132" lon="2.43346">
        <ele>85</ele>
        <time>2017-05-07T07:35:57.000Z</time>
      </trkpt>
      <trkpt lat="48.29128" lon="2.43343">
        <ele>85</ele>
        <time>2017-05-07T07:35:58.000Z</time>
      </trkpt>
      <trkpt lat="48.29124" lon="2.43339">
        <ele>85</ele>
        <time>2017-05-07T07:35:59.000Z</time>
      </trkpt>
      <trkpt lat="48.2912" lon="2.43335">
        <ele>86</ele>
        <time>2017-05-07T07:36:01.000Z</time>
      </trkpt>
      <trkpt lat="48.29119" lon="2.43331">
        <ele>84</ele>
        <time>2017-05-07T07:36:02.000Z</time>
      </trkpt>
      <trkpt lat="48.29111" lon="2.43318">
        <ele>85</ele>
        <time>2017-05-07T07:36:06.000Z</time>
      </trkpt>
      <trkpt lat="48.29108" lon="2.43314">
        <ele>85</ele>
        <time>2017-05-07T07:36:08.000Z</time>
      </trkpt>
      <trkpt lat="48.29106" lon="2.43311">
        <ele>85</ele>
        <time>2017-05-07T07:36:09.000Z</time>
      </trkpt>
      <trkpt lat="48.29099" lon="2.43299">
        <ele>85</ele>
        <time>2017-05-07T07:36:14.000Z</time>
      </trkpt>
      <trkpt lat="48.29097" lon="2.43297">
        <ele>85</ele>
        <time>2017-05-07T07:36:16.000Z</time>
      </trkpt>
      <trkpt lat="48.29095" lon="2.43296">
        <ele>85</ele>
        <time>2017-05-07T07:36:18.000Z</time>
      </trkpt>
      <trkpt lat="48.29094" lon="2.43294">
        <ele>85</ele>
        <time>2017-05-07T07:36:19.000Z</time>
      </trkpt>
      <trkpt lat="48.29092" lon="2.43292">
        <ele>85</ele>
        <time>2017-05-07T07:36:22.000Z</time>
      </trkpt>
      <trkpt lat="48.29089" lon="2.43291">
        <ele>85</ele>
        <time>2017-05-07T07:36:24.000Z</time>
      </trkpt>
      <trkpt lat="48.29084" lon="2.43286">
        <ele>85</ele>
        <time>2017-05-07T07:36:28.000Z</time>
      </trkpt>
      <trkpt lat="48.29081" lon="2.43283">
        <ele>92</ele>
        <time>2017-05-07T07:36:30.000Z</time>
      </trkpt>
      <trkpt lat="48.29079" lon="2.43278">
        <ele>92</ele>
        <time>2017-05-07T07:36:33.000Z</time>
      </trkpt>
      <trkpt lat="48.29074" lon="2.43271">
        <ele>92</ele>
        <time>2017-05-07T07:36:38.000Z</time>
      </trkpt>
      <trkpt lat="48.29073" lon="2.43271">
        <ele>92</ele>
        <time>2017-05-07T07:36:39.000Z</time>
      </trkpt>
      <trkpt lat="48.2907" lon="2.43272">
        <ele>92</ele>
        <time>2017-05-07T07:36:44.000Z</time>
      </trkpt>
      <trkpt lat="48.2907" lon="2.43272">
        <ele>92</ele>
        <time>2017-05-07T07:36:45.000Z</time>
      </trkpt>
      <trkpt lat="48.29065" lon="2.43277">
        <ele>93</ele>
        <time>2017-05-07T07:36:51.000Z</time>
      </trkpt>
      <trkpt lat="48.2906" lon="2.43276">
        <ele>94</ele>
        <time>2017-05-07T07:36:55.000Z</time>
      </trkpt>
      <trkpt lat="48.29056" lon="2.43276">
        <ele>94</ele>
        <time>2017-05-07T07:36:58.000Z</time>
      </trkpt>
      <trkpt lat="48.29055" lon="2.43275">
        <ele>94</ele>
        <time>2017-05-07T07:36:59.000Z</time>
      </trkpt>
      <trkpt lat="48.29049" lon="2.43272">
        <ele>95</ele>
        <time>2017-05-07T07:37:05.000Z</time>
      </trkpt>
      <trkpt lat="48.29046" lon="2.43267">
        <ele>95</ele>
        <time>2017-05-07T07:37:11.000Z</time>
      </trkpt>
      <trkpt lat="48.29046" lon="2.43266">
        <ele>95</ele>
        <time>2017-05-07T07:37:12.000Z</time>
      </trkpt>
      <trkpt lat="48.29041" lon="2.43262">
        <ele>96</ele>
        <time>2017-05-07T07:37:17.000Z</time>
      </trkpt>
      <trkpt lat="48.29041" lon="2.43261">
        <ele>96</ele>
        <time>2017-05-07T07:37:18.000Z</time>
      </trkpt>
      <trkpt lat="48.29038" lon="2.43255">
        <ele>96</ele>
        <time>2017-05-07T07:37:22.000Z</time>
      </trkpt>
      <trkpt lat="48.29035" lon="2.43247">
        <ele>92</ele>
        <time>2017-05-07T07:37:26.000Z</time>
      </trkpt>
      <trkpt lat="48.29032" lon="2.43245">
        <ele>93</ele>
        <time>2017-05-07T07:37:28.000Z</time>
      </trkpt>
      <trkpt lat="48.29031" lon="2.43244">
        <ele>93</ele>
        <time>2017-05-07T07:37:29.000Z</time>
      </trkpt>
      <trkpt lat="48.29031" lon="2.43243">
        <ele>93</ele>
        <time>2017-05-07T07:37:31.000Z</time>
      </trkpt>
      <trkpt lat="48.29024" lon="2.43239">
        <ele>94</ele>
        <time>2017-05-07T07:37:38.000Z</time>
      </trkpt>
      <trkpt lat="48.29023" lon="2.43239">
        <ele>94</ele>
        <time>2017-05-07T07:37:40.000Z</time>
      </trkpt>
      <trkpt lat="48.29015" lon="2.43235">
        <ele>95</ele>
        <time>2017-05-07T07:37:46.000Z</time>
      </trkpt>
      <trkpt lat="48.29008" lon="2.43231">
        <ele>95</ele>
        <time>2017-05-07T07:37:50.000Z</time>
      </trkpt>
      <trkpt lat="48.29004" lon="2.43227">
        <ele>95</ele>
        <time>2017-05-07T07:37:53.000Z</time>
      </trkpt>
      <trkpt lat="48.28999" lon="2.43225">
        <ele>99</ele>
        <time>2017-05-07T07:37:56.000Z</time>
      </trkpt>
      <trkpt lat="48.28992" lon="2.43221">
        <ele>99</ele>
        <time>2017-05-07T07:38:00.000Z</time>
      </trkpt>
      <trkpt lat="48.28985" lon="2.43219">
        <ele>99</ele>
        <time>2017-05-07T07:38:04.000Z</time>
      </trkpt>
      <trkpt lat="48.28984" lon="2.43219">
        <ele>99</ele>
        <time>2017-05-07T07:38:06.000Z</time>
      </trkpt>
      <trkpt lat="48.2898" lon="2.43218">
        <ele>99</ele>
        <time>2017-05-07T07:38:09.000Z</time>
      </trkpt>
      <trkpt lat="48.28972" lon="2.43211">
        <ele>98</ele>
        <time>2017-05-07T07:38:14.000Z</time>
      </trkpt>
      <trkpt lat="48.2896" lon="2.43205">
        <ele>98</ele>
        <time>2017-05-07T07:38:20.000Z</time>
      </trkpt>
      <trkpt lat="48.28954" lon="2.43204">
        <ele>98</ele>
        <time>2017-05-07T07:38:24.000Z</time>
      </trkpt>
      <trkpt lat="48.28951" lon="2.43203">
        <ele>98</ele>
        <time>2017-05-07T07:38:25.000Z</time>
      </trkpt>
      <trkpt lat="48.2894" lon="2.43199">
        <ele>98</ele>
        <time>2017-05-07T07:38:32.000Z</time>
      </trkpt>
      <trkpt lat="48.28931" lon="2.43205">
        <ele>98</ele>
        <time>2017-05-07T07:38:36.000Z</time>
      </trkpt>
      <trkpt lat="48.2893" lon="2.43207">
        <ele>99</ele>
        <time>2017-05-07T07:38:37.000Z</time>
      </trkpt>
      <trkpt lat="48.28929" lon="2.43223">
        <ele>100</ele>
        <time>2017-05-07T07:38:42.000Z</time>
      </trkpt>
      <trkpt lat="48.28928" lon="2.43239">
        <ele>101</ele>
        <time>2017-05-07T07:38:47.000Z</time>
      </trkpt>
      <trkpt lat="48.28924" lon="2.43259">
        <ele>104</ele>
        <time>2017-05-07T07:38:52.000Z</time>
      </trkpt>
      <trkpt lat="48.28922" lon="2.43272">
        <ele>105</ele>
        <time>2017-05-07T07:38:55.000Z</time>
      </trkpt>
      <trkpt lat="48.28919" lon="2.43282">
        <ele>105</ele>
        <time>2017-05-07T07:38:58.000Z</time>
      </trkpt>
      <trkpt lat="48.28916" lon="2.43302">
        <ele>102</ele>
        <time>2017-05-07T07:39:03.000Z</time>
      </trkpt>
      <trkpt lat="48.28915" lon="2.43331">
        <ele>106</ele>
        <time>2017-05-07T07:39:09.000Z</time>
      </trkpt>
      <trkpt lat="48.28913" lon="2.43341">
        <ele>106</ele>
        <time>2017-05-07T07:39:11.000Z</time>
      </trkpt>
      <trkpt lat="48.28908" lon="2.43353">
        <ele>104</ele>
        <time>2017-05-07T07:39:13.000Z</time>
      </trkpt>
      <trkpt lat="48.28901" lon="2.43384">
        <ele>104</ele>
        <time>2017-05-07T07:39:18.000Z</time>
      </trkpt>
      <trkpt lat="48.28901" lon="2.4341">
        <ele>106</ele>
        <time>2017-05-07T07:39:22.000Z</time>
      </trkpt>
      <trkpt lat="48.28898" lon="2.43443">
        <ele>106</ele>
        <time>2017-05-07T07:39:27.000Z</time>
      </trkpt>
      <trkpt lat="48.2889" lon="2.43477">
        <ele>106</ele>
        <time>2017-05-07T07:39:34.000Z</time>
      </trkpt>
      <trkpt lat="48.28888" lon="2.43482">
        <ele>106</ele>
        <time>2017-05-07T07:39:35.000Z</time>
      </trkpt>
      <trkpt lat="48.28882" lon="2.435">
        <ele>106</ele>
        <time>2017-05-07T07:39:39.000Z</time>
      </trkpt>
      <trkpt lat="48.28883" lon="2.43522">
        <ele>108</ele>
        <time>2017-05-07T07:39:44.000Z</time>
      </trkpt>
      <trkpt lat="48.28883" lon="2.43525">
        <ele>108</ele>
        <time>2017-05-07T07:39:45.000Z</time>
      </trkpt>
      <trkpt lat="48.28887" lon="2.43547">
        <ele>108</ele>
        <time>2017-05-07T07:39:51.000Z</time>
      </trkpt>
      <trkpt lat="48.28889" lon="2.43559">
        <ele>108</ele>
        <time>2017-05-07T07:39:54.000Z</time>
      </trkpt>
      <trkpt lat="48.2889" lon="2.43571">
        <ele>109</ele>
        <time>2017-05-07T07:39:57.000Z</time>
      </trkpt>
      <trkpt lat="48.28894" lon="2.43596">
        <ele>109</ele>
        <time>2017-05-07T07:40:03.000Z</time>
      </trkpt>
      <trkpt lat="48.28898" lon="2.43613">
        <ele>109</ele>
        <time>2017-05-07T07:40:07.000Z</time>
      </trkpt>
      <trkpt lat="48.289" lon="2.43619">
        <ele>109</ele>
        <time>2017-05-07T07:40:09.000Z</time>
      </trkpt>
      <trkpt lat="48.28899" lon="2.43632">
        <ele>109</ele>
        <time>2017-05-07T07:40:13.000Z</time>
      </trkpt>
      <trkpt lat="48.289" lon="2.43644">
        <ele>110</ele>
        <time>2017-05-07T07:40:16.000Z</time>
      </trkpt>
      <trkpt lat="48.28902" lon="2.43653">
        <ele>110</ele>
        <time>2017-05-07T07:40:18.000Z</time>
      </trkpt>
      <trkpt lat="48.28907" lon="2.43684">
        <ele>110</ele>
        <time>2017-05-07T07:40:24.000Z</time>
      </trkpt>
      <trkpt lat="48.28912" lon="2.43707">
        <ele>110</ele>
        <time>2017-05-07T07:40:29.000Z</time>
      </trkpt>
      <trkpt lat="48.28916" lon="2.43733">
        <ele>110</ele>
        <time>2017-05-07T07:40:34.000Z</time>
      </trkpt>
      <trkpt lat="48.28918" lon="2.43761">
        <ele>111</ele>
        <time>2017-05-07T07:40:39.000Z</time>
      </trkpt>
      <trkpt lat="48.28924" lon="2.43785">
        <ele>111</ele>
        <time>2017-05-07T07:40:43.000Z</time>
      </trkpt>
      <trkpt lat="48.28925" lon="2.4381">
        <ele>111</ele>
        <time>2017-05-07T07:40:47.000Z</time>
      </trkpt>
      <trkpt lat="48.28927" lon="2.43828">
        <ele>111</ele>
        <time>2017-05-07T07:40:50.000Z</time>
      </trkpt>
      <trkpt lat="48.28931" lon="2.43831">
        <ele>111</ele>
        <time>2017-05-07T07:40:51.000Z</time>
      </trkpt>
      <trkpt lat="48.28947" lon="2.43831">
        <ele>111</ele>
        <time>2017-05-07T07:40:55.000Z</time>
      </trkpt>
      <trkpt lat="48.28956" lon="2.43833">
        <ele>111</ele>
        <time>2017-05-07T07:40:58.000Z</time>
      </trkpt>
      <trkpt lat="48.28958" lon="2.43838">
        <ele>110</ele>
        <time>2017-05-07T07:40:59.000Z</time>
      </trkpt>
      <trkpt lat="48.28963" lon="2.43855">
        <ele>110</ele>
        <time>2017-05-07T07:41:02.000Z</time>
      </trkpt>
      <trkpt lat="48.28966" lon="2.43858">
        <ele>110</ele>
        <time>2017-05-07T07:41:03.000Z</time>
      </trkpt>
      <trkpt lat="48.28972" lon="2.43864">
        <ele>110</ele>
        <time>2017-05-07T07:41:06.000Z</time>
      </trkpt>
      <trkpt lat="48.28973" lon="2.43868">
        <ele>110</ele>
        <time>2017-05-07T07:41:07.000Z</time>
      </trkpt>
      <trkpt lat="48.28986" lon="2.43875">
        <ele>110</ele>
        <time>2017-05-07T07:41:10.000Z</time>
      </trkpt>
      <trkpt lat="48.28989" lon="2.43879">
        <ele>110</ele>
        <time>2017-05-07T07:41:11.000Z</time>
      </trkpt>
      <trkpt lat="48.28996" lon="2.43908">
        <ele>109</ele>
        <time>2017-05-07T07:41:15.000Z</time>
      </trkpt>
      <trkpt lat="48.28998" lon="2.43923">
        <ele>109</ele>
        <time>2017-05-07T07:41:17.000Z</time>
      </trkpt>
      <trkpt lat="48.28997" lon="2.43929">
        <ele>109</ele>
        <time>2017-05-07T07:41:18.000Z</time>
      </trkpt>
      <trkpt lat="48.28995" lon="2.43939">
        <ele>109</ele>
        <time>2017-05-07T07:41:20.000Z</time>
      </trkpt>
      <trkpt lat="48.28996" lon="2.4395">
        <ele>109</ele>
        <time>2017-05-07T07:41:23.000Z</time>
      </trkpt>
      <trkpt lat="48.28996" lon="2.43953">
        <ele>109</ele>
        <time>2017-05-07T07:41:24.000Z</time>
      </trkpt>
      <trkpt lat="48.28992" lon="2.43964">
        <ele>109</ele>
        <time>2017-05-07T07:41:27.000Z</time>
      </trkpt>
      <trkpt lat="48.2899" lon="2.43967">
        <ele>109</ele>
        <time>2017-05-07T07:41:28.000Z</time>
      </trkpt>
      <trkpt lat="48.28985" lon="2.4398">
        <ele>108</ele>
        <time>2017-05-07T07:41:31.000Z</time>
      </trkpt>
      <trkpt lat="48.28985" lon="2.43986">
        <ele>108</ele>
        <time>2017-05-07T07:41:32.000Z</time>
      </trkpt>
      <trkpt lat="48.28989" lon="2.43997">
        <ele>108</ele>
        <time>2017-05-07T07:41:35.000Z</time>
      </trkpt>
      <trkpt lat="48.28991" lon="2.43999">
        <ele>108</ele>
        <time>2017-05-07T07:41:36.000Z</time>
      </trkpt>
      <trkpt lat="48.29" lon="2.44002">
        <ele>107</ele>
        <time>2017-05-07T07:41:38.000Z</time>
      </trkpt>
      <trkpt lat="48.29005" lon="2.44">
        <ele>106</ele>
        <time>2017-05-07T07:41:39.000Z</time>
      </trkpt>
      <trkpt lat="48.29011" lon="2.43999">
        <ele>106</ele>
        <time>2017-05-07T07:41:40.000Z</time>
      </trkpt>
      <trkpt lat="48.29021" lon="2.43998">
        <ele>105</ele>
        <time>2017-05-07T07:41:42.000Z</time>
      </trkpt>
      <trkpt lat="48.29034" lon="2.44">
        <ele>104</ele>
        <time>2017-05-07T07:41:44.000Z</time>
      </trkpt>
      <trkpt lat="48.29044" lon="2.44001">
        <ele>103</ele>
        <time>2017-05-07T07:41:46.000Z</time>
      </trkpt>
      <trkpt lat="48.29052" lon="2.44005">
        <ele>102</ele>
        <time>2017-05-07T07:41:48.000Z</time>
      </trkpt>
      <trkpt lat="48.29057" lon="2.44007">
        <ele>102</ele>
        <time>2017-05-07T07:41:49.000Z</time>
      </trkpt>
      <trkpt lat="48.29064" lon="2.44015">
        <ele>101</ele>
        <time>2017-05-07T07:41:51.000Z</time>
      </trkpt>
      <trkpt lat="48.29066" lon="2.44018">
        <ele>101</ele>
        <time>2017-05-07T07:41:52.000Z</time>
      </trkpt>
      <trkpt lat="48.29066" lon="2.44024">
        <ele>102</ele>
        <time>2017-05-07T07:41:54.000Z</time>
      </trkpt>
      <trkpt lat="48.29065" lon="2.44027">
        <ele>102</ele>
        <time>2017-05-07T07:41:55.000Z</time>
      </trkpt>
      <trkpt lat="48.29061" lon="2.44041">
        <ele>102</ele>
        <time>2017-05-07T07:41:59.000Z</time>
      </trkpt>
      <trkpt lat="48.29059" lon="2.44045">
        <ele>102</ele>
        <time>2017-05-07T07:42:00.000Z</time>
      </trkpt>
      <trkpt lat="48.29057" lon="2.4405">
        <ele>102</ele>
        <time>2017-05-07T07:42:01.000Z</time>
      </trkpt>
      <trkpt lat="48.29053" lon="2.44061">
        <ele>102</ele>
        <time>2017-05-07T07:42:04.000Z</time>
      </trkpt>
      <trkpt lat="48.29049" lon="2.44072">
        <ele>102</ele>
        <time>2017-05-07T07:42:06.000Z</time>
      </trkpt>
      <trkpt lat="48.29045" lon="2.44084">
        <ele>101</ele>
        <time>2017-05-07T07:42:08.000Z</time>
      </trkpt>
      <trkpt lat="48.29039" lon="2.441">
        <ele>101</ele>
        <time>2017-05-07T07:42:11.000Z</time>
      </trkpt>
      <trkpt lat="48.29028" lon="2.44119">
        <ele>101</ele>
        <time>2017-05-07T07:42:15.000Z</time>
      </trkpt>
      <trkpt lat="48.29025" lon="2.44124">
        <ele>101</ele>
        <time>2017-05-07T07:42:16.000Z</time>
      </trkpt>
      <trkpt lat="48.29016" lon="2.44139">
        <ele>101</ele>
        <time>2017-05-07T07:42:20.000Z</time>
      </trkpt>
      <trkpt lat="48.2901" lon="2.44143">
        <ele>101</ele>
        <time>2017-05-07T07:42:22.000Z</time>
      </trkpt>
      <trkpt lat="48.29003" lon="2.44151">
        <ele>102</ele>
        <time>2017-05-07T07:42:25.000Z</time>
      </trkpt>
      <trkpt lat="48.28993" lon="2.44164">
        <ele>103</ele>
        <time>2017-05-07T07:42:29.000Z</time>
      </trkpt>
      <trkpt lat="48.28991" lon="2.4417">
        <ele>103</ele>
        <time>2017-05-07T07:42:30.000Z</time>
      </trkpt>
      <trkpt lat="48.28991" lon="2.44175">
        <ele>103</ele>
        <time>2017-05-07T07:42:31.000Z</time>
      </trkpt>
      <trkpt lat="48.28988" lon="2.44197">
        <ele>103</ele>
        <time>2017-05-07T07:42:34.000Z</time>
      </trkpt>
      <trkpt lat="48.28988" lon="2.44204">
        <ele>103</ele>
        <time>2017-05-07T07:42:35.000Z</time>
      </trkpt>
      <trkpt lat="48.28995" lon="2.44231">
        <ele>102</ele>
        <time>2017-05-07T07:42:38.000Z</time>
      </trkpt>
      <trkpt lat="48.28997" lon="2.4424">
        <ele>101</ele>
        <time>2017-05-07T07:42:39.000Z</time>
      </trkpt>
      <trkpt lat="48.29007" lon="2.44279">
        <ele>100</ele>
        <time>2017-05-07T07:42:44.000Z</time>
      </trkpt>
      <trkpt lat="48.29013" lon="2.44297">
        <ele>100</ele>
        <time>2017-05-07T07:42:47.000Z</time>
      </trkpt>
      <trkpt lat="48.29017" lon="2.44307">
        <ele>100</ele>
        <time>2017-05-07T07:42:49.000Z</time>
      </trkpt>
      <trkpt lat="48.29023" lon="2.44321">
        <ele>100</ele>
        <time>2017-05-07T07:42:52.000Z</time>
      </trkpt>
      <trkpt lat="48.29028" lon="2.44329">
        <ele>100</ele>
        <time>2017-05-07T07:42:54.000Z</time>
      </trkpt>
      <trkpt lat="48.29032" lon="2.4434">
        <ele>102</ele>
        <time>2017-05-07T07:42:57.000Z</time>
      </trkpt>
      <trkpt lat="48.29039" lon="2.44356">
        <ele>102</ele>
        <time>2017-05-07T07:43:01.000Z</time>
      </trkpt>
      <trkpt lat="48.29052" lon="2.44383">
        <ele>103</ele>
        <time>2017-05-07T07:43:08.000Z</time>
      </trkpt>
      <trkpt lat="48.29055" lon="2.44389">
        <ele>103</ele>
        <time>2017-05-07T07:43:11.000Z</time>
      </trkpt>
      <trkpt lat="48.29057" lon="2.44393">
        <ele>103</ele>
        <time>2017-05-07T07:43:12.000Z</time>
      </trkpt>
      <trkpt lat="48.29058" lon="2.44396">
        <ele>104</ele>
        <time>2017-05-07T07:43:13.000Z</time>
      </trkpt>
      <trkpt lat="48.29065" lon="2.44416">
        <ele>104</ele>
        <time>2017-05-07T07:43:19.000Z</time>
      </trkpt>
      <trkpt lat="48.29066" lon="2.44419">
        <ele>106</ele>
        <time>2017-05-07T07:43:20.000Z</time>
      </trkpt>
      <trkpt lat="48.29074" lon="2.44439">
        <ele>106</ele>
        <time>2017-05-07T07:43:27.000Z</time>
      </trkpt>
      <trkpt lat="48.29079" lon="2.4445">
        <ele>106</ele>
        <time>2017-05-07T07:43:31.000Z</time>
      </trkpt>
      <trkpt lat="48.29082" lon="2.44454">
        <ele>106</ele>
        <time>2017-05-07T07:43:33.000Z</time>
      </trkpt>
      <trkpt lat="48.29088" lon="2.44468">
        <ele>109</ele>
        <time>2017-05-07T07:43:39.000Z</time>
      </trkpt>
      <trkpt lat="48.2909" lon="2.44471">
        <ele>109</ele>
        <time>2017-05-07T07:43:40.000Z</time>
      </trkpt>
      <trkpt lat="48.29093" lon="2.44482">
        <ele>109</ele>
        <time>2017-05-07T07:43:45.000Z</time>
      </trkpt>
      <trkpt lat="48.291" lon="2.44497">
        <ele>109</ele>
        <time>2017-05-07T07:43:52.000Z</time>
      </trkpt>
      <trkpt lat="48.29101" lon="2.44502">
        <ele>109</ele>
        <time>2017-05-07T07:43:54.000Z</time>
      </trkpt>
      <trkpt lat="48.29104" lon="2.44508">
        <ele>109</ele>
        <time>2017-05-07T07:43:58.000Z</time>
      </trkpt>
      <trkpt lat="48.2911" lon="2.44511">
        <ele>110</ele>
        <time>2017-05-07T07:44:00.000Z</time>
      </trkpt>
      <trkpt lat="48.2912" lon="2.44518">
        <ele>110</ele>
        <time>2017-05-07T07:44:05.000Z</time>
      </trkpt>
      <trkpt lat="48.29133" lon="2.44513">
        <ele>111</ele>
        <time>2017-05-07T07:44:11.000Z</time>
      </trkpt>
      <trkpt lat="48.2914" lon="2.44493">
        <ele>111</ele>
        <time>2017-05-07T07:44:16.000Z</time>
      </trkpt>
      <trkpt lat="48.29148" lon="2.4448">
        <ele>112</ele>
        <time>2017-05-07T07:44:21.000Z</time>
      </trkpt>
      <trkpt lat="48.29156" lon="2.4447">
        <ele>112</ele>
        <time>2017-05-07T07:44:26.000Z</time>
      </trkpt>
      <trkpt lat="48.29157" lon="2.44468">
        <ele>112</ele>
        <time>2017-05-07T07:44:27.000Z</time>
      </trkpt>
      <trkpt lat="48.29159" lon="2.44463">
        <ele>112</ele>
        <time>2017-05-07T07:44:29.000Z</time>
      </trkpt>
      <trkpt lat="48.2916" lon="2.4446">
        <ele>112</ele>
        <time>2017-05-07T07:44:30.000Z</time>
      </trkpt>
      <trkpt lat="48.29161" lon="2.44452">
        <ele>112</ele>
        <time>2017-05-07T07:44:33.000Z</time>
      </trkpt>
      <trkpt lat="48.29161" lon="2.44449">
        <ele>112</ele>
        <time>2017-05-07T07:44:34.000Z</time>
      </trkpt>
      <trkpt lat="48.29163" lon="2.4443">
        <ele>112</ele>
        <time>2017-05-07T07:44:39.000Z</time>
      </trkpt>
      <trkpt lat="48.29164" lon="2.44427">
        <ele>113</ele>
        <time>2017-05-07T07:44:40.000Z</time>
      </trkpt>
      <trkpt lat="48.29168" lon="2.44414">
        <ele>114</ele>
        <time>2017-05-07T07:44:45.000Z</time>
      </trkpt>
      <trkpt lat="48.2917" lon="2.44408">
        <ele>114</ele>
        <time>2017-05-07T07:44:47.000Z</time>
      </trkpt>
      <trkpt lat="48.29171" lon="2.44403">
        <ele>114</ele>
        <time>2017-05-07T07:44:51.000Z</time>
      </trkpt>
      <trkpt lat="48.29173" lon="2.44398">
        <ele>114</ele>
        <time>2017-05-07T07:44:52.000Z</time>
      </trkpt>
      <trkpt lat="48.29177" lon="2.44389">
        <ele>114</ele>
        <time>2017-05-07T07:44:57.000Z</time>
      </trkpt>
      <trkpt lat="48.2918" lon="2.4438">
        <ele>114</ele>
        <time>2017-05-07T07:45:00.000Z</time>
      </trkpt>
      <trkpt lat="48.29184" lon="2.44369">
        <ele>114</ele>
        <time>2017-05-07T07:45:04.000Z</time>
      </trkpt>
      <trkpt lat="48.29186" lon="2.44366">
        <ele>114</ele>
        <time>2017-05-07T07:45:07.000Z</time>
      </trkpt>
      <trkpt lat="48.29189" lon="2.44355">
        <ele>114</ele>
        <time>2017-05-07T07:45:10.000Z</time>
      </trkpt>
      <trkpt lat="48.2919" lon="2.44352">
        <ele>114</ele>
        <time>2017-05-07T07:45:11.000Z</time>
      </trkpt>
      <trkpt lat="48.29193" lon="2.44335">
        <ele>114</ele>
        <time>2017-05-07T07:45:15.000Z</time>
      </trkpt>
      <trkpt lat="48.29193" lon="2.44325">
        <ele>114</ele>
        <time>2017-05-07T07:45:17.000Z</time>
      </trkpt>
      <trkpt lat="48.29191" lon="2.44318">
        <ele>114</ele>
        <time>2017-05-07T07:45:19.000Z</time>
      </trkpt>
      <trkpt lat="48.2919" lon="2.44315">
        <ele>114</ele>
        <time>2017-05-07T07:45:20.000Z</time>
      </trkpt>
      <trkpt lat="48.29194" lon="2.44301">
        <ele>114</ele>
        <time>2017-05-07T07:45:24.000Z</time>
      </trkpt>
      <trkpt lat="48.29195" lon="2.44291">
        <ele>113</ele>
        <time>2017-05-07T07:45:27.000Z</time>
      </trkpt>
      <trkpt lat="48.29197" lon="2.44285">
        <ele>113</ele>
        <time>2017-05-07T07:45:30.000Z</time>
      </trkpt>
      <trkpt lat="48.29197" lon="2.44279">
        <ele>113</ele>
        <time>2017-05-07T07:45:32.000Z</time>
      </trkpt>
      <trkpt lat="48.29203" lon="2.44266">
        <ele>113</ele>
        <time>2017-05-07T07:45:35.000Z</time>
      </trkpt>
      <trkpt lat="48.29207" lon="2.44253">
        <ele>113</ele>
        <time>2017-05-07T07:45:38.000Z</time>
      </trkpt>
      <trkpt lat="48.2921" lon="2.44246">
        <ele>110</ele>
        <time>2017-05-07T07:45:40.000Z</time>
      </trkpt>
      <trkpt lat="48.29212" lon="2.44242">
        <ele>110</ele>
        <time>2017-05-07T07:45:41.000Z</time>
      </trkpt>
      <trkpt lat="48.29221" lon="2.44241">
        <ele>111</ele>
        <time>2017-05-07T07:45:44.000Z</time>
      </trkpt>
      <trkpt lat="48.29232" lon="2.44238">
        <ele>111</ele>
        <time>2017-05-07T07:45:47.000Z</time>
      </trkpt>
      <trkpt lat="48.2924" lon="2.44235">
        <ele>112</ele>
        <time>2017-05-07T07:45:49.000Z</time>
      </trkpt>
      <trkpt lat="48.29255" lon="2.44228">
        <ele>113</ele>
        <time>2017-05-07T07:45:54.000Z</time>
      </trkpt>
      <trkpt lat="48.29268" lon="2.44211">
        <ele>112</ele>
        <time>2017-05-07T07:45:59.000Z</time>
      </trkpt>
      <trkpt lat="48.29278" lon="2.4419">
        <ele>111</ele>
        <time>2017-05-07T07:46:03.000Z</time>
      </trkpt>
      <trkpt lat="48.29283" lon="2.44179">
        <ele>111</ele>
        <time>2017-05-07T07:46:06.000Z</time>
      </trkpt>
      <trkpt lat="48.29286" lon="2.44179">
        <ele>111</ele>
        <time>2017-05-07T07:46:07.000Z</time>
      </trkpt>
      <trkpt lat="48.29299" lon="2.44186">
        <ele>111</ele>
        <time>2017-05-07T07:46:11.000Z</time>
      </trkpt>
      <trkpt lat="48.29301" lon="2.4419">
        <ele>111</ele>
        <time>2017-05-07T07:46:12.000Z</time>
      </trkpt>
      <trkpt lat="48.29311" lon="2.44202">
        <ele>111</ele>
        <time>2017-05-07T07:46:15.000Z</time>
      </trkpt>
      <trkpt lat="48.29316" lon="2.44204">
        <ele>111</ele>
        <time>2017-05-07T07:46:16.000Z</time>
      </trkpt>
      <trkpt lat="48.29328" lon="2.44219">
        <ele>112</ele>
        <time>2017-05-07T07:46:19.000Z</time>
      </trkpt>
      <trkpt lat="48.29332" lon="2.44224">
        <ele>112</ele>
        <time>2017-05-07T07:46:20.000Z</time>
      </trkpt>
      <trkpt lat="48.29336" lon="2.4423">
        <ele>109</ele>
        <time>2017-05-07T07:46:21.000Z</time>
      </trkpt>
      <trkpt lat="48.29353" lon="2.44254">
        <ele>111</ele>
        <time>2017-05-07T07:46:25.000Z</time>
      </trkpt>
      <trkpt lat="48.29371" lon="2.44287">
        <ele>108</ele>
        <time>2017-05-07T07:46:31.000Z</time>
      </trkpt>
      <trkpt lat="48.29375" lon="2.44289">
        <ele>108</ele>
        <time>2017-05-07T07:46:32.000Z</time>
      </trkpt>
      <trkpt lat="48.29384" lon="2.44296">
        <ele>108</ele>
        <time>2017-05-07T07:46:34.000Z</time>
      </trkpt>
      <trkpt lat="48.29389" lon="2.4431">
        <ele>107</ele>
        <time>2017-05-07T07:46:36.000Z</time>
      </trkpt>
      <trkpt lat="48.29393" lon="2.44314">
        <ele>107</ele>
        <time>2017-05-07T07:46:37.000Z</time>
      </trkpt>
      <trkpt lat="48.29396" lon="2.44319">
        <ele>106</ele>
        <time>2017-05-07T07:46:38.000Z</time>
      </trkpt>
      <trkpt lat="48.29398" lon="2.44326">
        <ele>106</ele>
        <time>2017-05-07T07:46:39.000Z</time>
      </trkpt>
      <trkpt lat="48.29401" lon="2.4434">
        <ele>106</ele>
        <time>2017-05-07T07:46:41.000Z</time>
      </trkpt>
      <trkpt lat="48.29412" lon="2.44363">
        <ele>107</ele>
        <time>2017-05-07T07:46:45.000Z</time>
      </trkpt>
      <trkpt lat="48.29413" lon="2.4437">
        <ele>107</ele>
        <time>2017-05-07T07:46:46.000Z</time>
      </trkpt>
      <trkpt lat="48.29413" lon="2.44385">
        <ele>108</ele>
        <time>2017-05-07T07:46:49.000Z</time>
      </trkpt>
      <trkpt lat="48.29425" lon="2.44399">
        <ele>101</ele>
        <time>2017-05-07T07:46:52.000Z</time>
      </trkpt>
      <trkpt lat="48.29431" lon="2.44427">
        <ele>102</ele>
        <time>2017-05-07T07:46:57.000Z</time>
      </trkpt>
      <trkpt lat="48.29433" lon="2.44464">
        <ele>100</ele>
        <time>2017-05-07T07:47:03.000Z</time>
      </trkpt>
      <trkpt lat="48.29432" lon="2.44473">
        <ele>101</ele>
        <time>2017-05-07T07:47:05.000Z</time>
      </trkpt>
      <trkpt lat="48.2943" lon="2.44483">
        <ele>102</ele>
        <time>2017-05-07T07:47:07.000Z</time>
      </trkpt>
      <trkpt lat="48.29432" lon="2.44504">
        <ele>103</ele>
        <time>2017-05-07T07:47:10.000Z</time>
      </trkpt>
      <trkpt lat="48.29434" lon="2.44511">
        <ele>103</ele>
        <time>2017-05-07T07:47:11.000Z</time>
      </trkpt>
      <trkpt lat="48.29437" lon="2.4453">
        <ele>102</ele>
        <time>2017-05-07T07:47:15.000Z</time>
      </trkpt>
      <trkpt lat="48.29439" lon="2.44565">
        <ele>103</ele>
        <time>2017-05-07T07:47:21.000Z</time>
      </trkpt>
      <trkpt lat="48.29443" lon="2.44593">
        <ele>105</ele>
        <time>2017-05-07T07:47:25.000Z</time>
      </trkpt>
      <trkpt lat="48.29445" lon="2.44606">
        <ele>105</ele>
        <time>2017-05-07T07:47:27.000Z</time>
      </trkpt>
      <trkpt lat="48.29447" lon="2.44611">
        <ele>105</ele>
        <time>2017-05-07T07:47:28.000Z</time>
      </trkpt>
      <trkpt lat="48.29454" lon="2.44629">
        <ele>104</ele>
        <time>2017-05-07T07:47:31.000Z</time>
      </trkpt>
      <trkpt lat="48.29456" lon="2.44639">
        <ele>104</ele>
        <time>2017-05-07T07:47:34.000Z</time>
      </trkpt>
      <trkpt lat="48.29456" lon="2.44641">
        <ele>104</ele>
        <time>2017-05-07T07:47:35.000Z</time>
      </trkpt>
      <trkpt lat="48.29456" lon="2.44644">
        <ele>104</ele>
        <time>2017-05-07T07:47:36.000Z</time>
      </trkpt>
      <trkpt lat="48.29457" lon="2.44651">
        <ele>105</ele>
        <time>2017-05-07T07:47:39.000Z</time>
      </trkpt>
      <trkpt lat="48.29458" lon="2.4466">
        <ele>105</ele>
        <time>2017-05-07T07:47:42.000Z</time>
      </trkpt>
      <trkpt lat="48.29459" lon="2.44678">
        <ele>107</ele>
        <time>2017-05-07T07:47:47.000Z</time>
      </trkpt>
      <trkpt lat="48.2946" lon="2.44677">
        <ele>107</ele>
        <time>2017-05-07T07:47:48.000Z</time>
      </trkpt>
      <trkpt lat="48.29458" lon="2.44684">
        <ele>107</ele>
        <time>2017-05-07T07:47:53.000Z</time>
      </trkpt>
      <trkpt lat="48.29456" lon="2.44684">
        <ele>107</ele>
        <time>2017-05-07T07:47:55.000Z</time>
      </trkpt>
      <trkpt lat="48.29456" lon="2.44684">
        <ele>107</ele>
        <time>2017-05-07T07:47:57.000Z</time>
      </trkpt>
      <trkpt lat="48.29454" lon="2.44686">
        <ele>107</ele>
        <time>2017-05-07T07:47:58.000Z</time>
      </trkpt>
      <trkpt lat="48.29451" lon="2.44687">
        <ele>108</ele>
        <time>2017-05-07T07:48:01.000Z</time>
      </trkpt>
      <trkpt lat="48.2945" lon="2.44688">
        <ele>108</ele>
        <time>2017-05-07T07:48:03.000Z</time>
      </trkpt>
      <trkpt lat="48.29447" lon="2.44694">
        <ele>108</ele>
        <time>2017-05-07T07:48:09.000Z</time>
      </trkpt>
      <trkpt lat="48.29445" lon="2.44701">
        <ele>108</ele>
        <time>2017-05-07T07:48:14.000Z</time>
      </trkpt>
      <trkpt lat="48.29444" lon="2.44705">
        <ele>108</ele>
        <time>2017-05-07T07:48:16.000Z</time>
      </trkpt>
      <trkpt lat="48.29446" lon="2.44712">
        <ele>108</ele>
        <time>2017-05-07T07:48:19.000Z</time>
      </trkpt>
      <trkpt lat="48.29453" lon="2.44728">
        <ele>108</ele>
        <time>2017-05-07T07:48:24.000Z</time>
      </trkpt>
      <trkpt lat="48.29456" lon="2.4473">
        <ele>108</ele>
        <time>2017-05-07T07:48:25.000Z</time>
      </trkpt>
      <trkpt lat="48.2946" lon="2.44729">
        <ele>107</ele>
        <time>2017-05-07T07:48:27.000Z</time>
      </trkpt>
      <trkpt lat="48.29465" lon="2.44724">
        <ele>107</ele>
        <time>2017-05-07T07:48:29.000Z</time>
      </trkpt>
      <trkpt lat="48.29468" lon="2.44721">
        <ele>107</ele>
        <time>2017-05-07T07:48:30.000Z</time>
      </trkpt>
      <trkpt lat="48.29471" lon="2.44718">
        <ele>106</ele>
        <time>2017-05-07T07:48:31.000Z</time>
      </trkpt>
      <trkpt lat="48.29474" lon="2.44713">
        <ele>106</ele>
        <time>2017-05-07T07:48:32.000Z</time>
      </trkpt>
      <trkpt lat="48.29478" lon="2.44707">
        <ele>106</ele>
        <time>2017-05-07T07:48:34.000Z</time>
      </trkpt>
      <trkpt lat="48.2948" lon="2.44703">
        <ele>106</ele>
        <time>2017-05-07T07:48:35.000Z</time>
      </trkpt>
      <trkpt lat="48.29481" lon="2.447">
        <ele>105</ele>
        <time>2017-05-07T07:48:36.000Z</time>
      </trkpt>
      <trkpt lat="48.29483" lon="2.44698">
        <ele>105</ele>
        <time>2017-05-07T07:48:37.000Z</time>
      </trkpt>
      <trkpt lat="48.29486" lon="2.44696">
        <ele>105</ele>
        <time>2017-05-07T07:48:39.000Z</time>
      </trkpt>
      <trkpt lat="48.29489" lon="2.44699">
        <ele>105</ele>
        <time>2017-05-07T07:48:41.000Z</time>
      </trkpt>
      <trkpt lat="48.29489" lon="2.44702">
        <ele>105</ele>
        <time>2017-05-07T07:48:42.000Z</time>
      </trkpt>
      <trkpt lat="48.2949" lon="2.44705">
        <ele>105</ele>
        <time>2017-05-07T07:48:43.000Z</time>
      </trkpt>
      <trkpt lat="48.29495" lon="2.44708">
        <ele>105</ele>
        <time>2017-05-07T07:48:47.000Z</time>
      </trkpt>
      <trkpt lat="48.295" lon="2.44705">
        <ele>100</ele>
        <time>2017-05-07T07:48:50.000Z</time>
      </trkpt>
      <trkpt lat="48.29505" lon="2.44705">
        <ele>100</ele>
        <time>2017-05-07T07:48:52.000Z</time>
      </trkpt>
      <trkpt lat="48.29509" lon="2.44705">
        <ele>100</ele>
        <time>2017-05-07T07:48:54.000Z</time>
      </trkpt>
      <trkpt lat="48.29512" lon="2.44705">
        <ele>100</ele>
        <time>2017-05-07T07:48:55.000Z</time>
      </trkpt>
      <trkpt lat="48.29519" lon="2.44707">
        <ele>100</ele>
        <time>2017-05-07T07:48:57.000Z</time>
      </trkpt>
      <trkpt lat="48.29527" lon="2.44706">
        <ele>100</ele>
        <time>2017-05-07T07:48:59.000Z</time>
      </trkpt>
      <trkpt lat="48.29535" lon="2.44699">
        <ele>100</ele>
        <time>2017-05-07T07:49:01.000Z</time>
      </trkpt>
      <trkpt lat="48.29539" lon="2.44693">
        <ele>100</ele>
        <time>2017-05-07T07:49:02.000Z</time>
      </trkpt>
      <trkpt lat="48.29542" lon="2.4468">
        <ele>100</ele>
        <time>2017-05-07T07:49:04.000Z</time>
      </trkpt>
      <trkpt lat="48.29543" lon="2.44673">
        <ele>100</ele>
        <time>2017-05-07T07:49:05.000Z</time>
      </trkpt>
      <trkpt lat="48.29542" lon="2.44665">
        <ele>97</ele>
        <time>2017-05-07T07:49:06.000Z</time>
      </trkpt>
      <trkpt lat="48.29541" lon="2.44657">
        <ele>97</ele>
        <time>2017-05-07T07:49:07.000Z</time>
      </trkpt>
      <trkpt lat="48.2954" lon="2.44648">
        <ele>97</ele>
        <time>2017-05-07T07:49:08.000Z</time>
      </trkpt>
      <trkpt lat="48.29539" lon="2.4464">
        <ele>97</ele>
        <time>2017-05-07T07:49:09.000Z</time>
      </trkpt>
      <trkpt lat="48.29537" lon="2.44625">
        <ele>96</ele>
        <time>2017-05-07T07:49:11.000Z</time>
      </trkpt>
      <trkpt lat="48.29537" lon="2.44607">
        <ele>96</ele>
        <time>2017-05-07T07:49:13.000Z</time>
      </trkpt>
      <trkpt lat="48.29538" lon="2.44589">
        <ele>96</ele>
        <time>2017-05-07T07:49:15.000Z</time>
      </trkpt>
      <trkpt lat="48.2954" lon="2.44573">
        <ele>94</ele>
        <time>2017-05-07T07:49:17.000Z</time>
      </trkpt>
      <trkpt lat="48.29541" lon="2.44565">
        <ele>94</ele>
        <time>2017-05-07T07:49:18.000Z</time>
      </trkpt>
      <trkpt lat="48.29543" lon="2.4453">
        <ele>94</ele>
        <time>2017-05-07T07:49:23.000Z</time>
      </trkpt>
      <trkpt lat="48.29542" lon="2.44522">
        <ele>94</ele>
        <time>2017-05-07T07:49:25.000Z</time>
      </trkpt>
      <trkpt lat="48.29549" lon="2.44513">
        <ele>94</ele>
        <time>2017-05-07T07:49:29.000Z</time>
      </trkpt>
      <trkpt lat="48.29556" lon="2.44515">
        <ele>94</ele>
        <time>2017-05-07T07:49:34.000Z</time>
      </trkpt>
      <trkpt lat="48.29559" lon="2.44515">
        <ele>94</ele>
        <time>2017-05-07T07:49:36.000Z</time>
      </trkpt>
      <trkpt lat="48.29566" lon="2.44518">
        <ele>94</ele>
        <time>2017-05-07T07:49:41.000Z</time>
      </trkpt>
      <trkpt lat="48.29569" lon="2.4452">
        <ele>94</ele>
        <time>2017-05-07T07:49:45.000Z</time>
      </trkpt>
      <trkpt lat="48.2957" lon="2.44521">
        <ele>94</ele>
        <time>2017-05-07T07:49:46.000Z</time>
      </trkpt>
      <trkpt lat="48.29572" lon="2.44521">
        <ele>94</ele>
        <time>2017-05-07T07:49:47.000Z</time>
      </trkpt>
      <trkpt lat="48.29573" lon="2.4452">
        <ele>94</ele>
        <time>2017-05-07T07:49:48.000Z</time>
      </trkpt>
      <trkpt lat="48.29573" lon="2.44518">
        <ele>94</ele>
        <time>2017-05-07T07:49:50.000Z</time>
      </trkpt>
      <trkpt lat="48.29575" lon="2.44514">
        <ele>94</ele>
        <time>2017-05-07T07:49:55.000Z</time>
      </trkpt>
      <trkpt lat="48.29575" lon="2.44513">
        <ele>94</ele>
        <time>2017-05-07T07:49:56.000Z</time>
      </trkpt>
      <trkpt lat="48.29579" lon="2.44506">
        <ele>94</ele>
        <time>2017-05-07T07:50:02.000Z</time>
      </trkpt>
      <trkpt lat="48.29585" lon="2.44494">
        <ele>95</ele>
        <time>2017-05-07T07:50:08.000Z</time>
      </trkpt>
      <trkpt lat="48.29588" lon="2.44488">
        <ele>96</ele>
        <time>2017-05-07T07:50:11.000Z</time>
      </trkpt>
      <trkpt lat="48.2959" lon="2.4448">
        <ele>97</ele>
        <time>2017-05-07T07:50:14.000Z</time>
      </trkpt>
      <trkpt lat="48.29593" lon="2.44472">
        <ele>97</ele>
        <time>2017-05-07T07:50:16.000Z</time>
      </trkpt>
      <trkpt lat="48.29595" lon="2.44465">
        <ele>97</ele>
        <time>2017-05-07T07:50:18.000Z</time>
      </trkpt>
      <trkpt lat="48.29598" lon="2.44453">
        <ele>97</ele>
        <time>2017-05-07T07:50:23.000Z</time>
      </trkpt>
      <trkpt lat="48.29601" lon="2.44438">
        <ele>96</ele>
        <time>2017-05-07T07:50:30.000Z</time>
      </trkpt>
      <trkpt lat="48.29598" lon="2.44425">
        <ele>95</ele>
        <time>2017-05-07T07:50:34.000Z</time>
      </trkpt>
      <trkpt lat="48.29597" lon="2.44419">
        <ele>94</ele>
        <time>2017-05-07T07:50:35.000Z</time>
      </trkpt>
      <trkpt lat="48.29598" lon="2.44398">
        <ele>94</ele>
        <time>2017-05-07T07:50:38.000Z</time>
      </trkpt>
      <trkpt lat="48.29602" lon="2.44374">
        <ele>95</ele>
        <time>2017-05-07T07:50:43.000Z</time>
      </trkpt>
      <trkpt lat="48.29611" lon="2.44349">
        <ele>95</ele>
        <time>2017-05-07T07:50:48.000Z</time>
      </trkpt>
      <trkpt lat="48.29613" lon="2.44341">
        <ele>95</ele>
        <time>2017-05-07T07:50:50.000Z</time>
      </trkpt>
      <trkpt lat="48.29611" lon="2.44333">
        <ele>93</ele>
        <time>2017-05-07T07:50:52.000Z</time>
      </trkpt>
      <trkpt lat="48.29606" lon="2.44324">
        <ele>93</ele>
        <time>2017-05-07T07:50:55.000Z</time>
      </trkpt>
      <trkpt lat="48.29605" lon="2.44318">
        <ele>93</ele>
        <time>2017-05-07T07:50:56.000Z</time>
      </trkpt>
      <trkpt lat="48.29604" lon="2.44301">
        <ele>93</ele>
        <time>2017-05-07T07:51:00.000Z</time>
      </trkpt>
      <trkpt lat="48.29606" lon="2.44297">
        <ele>93</ele>
        <time>2017-05-07T07:51:01.000Z</time>
      </trkpt>
      <trkpt lat="48.29611" lon="2.44279">
        <ele>92</ele>
        <time>2017-05-07T07:51:05.000Z</time>
      </trkpt>
      <trkpt lat="48.29614" lon="2.4427">
        <ele>92</ele>
        <time>2017-05-07T07:51:07.000Z</time>
      </trkpt>
      <trkpt lat="48.29615" lon="2.44266">
        <ele>92</ele>
        <time>2017-05-07T07:51:08.000Z</time>
      </trkpt>
      <trkpt lat="48.2962" lon="2.44256">
        <ele>92</ele>
        <time>2017-05-07T07:51:11.000Z</time>
      </trkpt>
      <trkpt lat="48.29617" lon="2.44249">
        <ele>90</ele>
        <time>2017-05-07T07:51:13.000Z</time>
      </trkpt>
      <trkpt lat="48.29613" lon="2.44235">
        <ele>89</ele>
        <time>2017-05-07T07:51:16.000Z</time>
      </trkpt>
      <trkpt lat="48.29613" lon="2.4423">
        <ele>89</ele>
        <time>2017-05-07T07:51:17.000Z</time>
      </trkpt>
      <trkpt lat="48.29612" lon="2.44208">
        <ele>89</ele>
        <time>2017-05-07T07:51:21.000Z</time>
      </trkpt>
      <trkpt lat="48.29613" lon="2.44203">
        <ele>89</ele>
        <time>2017-05-07T07:51:22.000Z</time>
      </trkpt>
      <trkpt lat="48.29614" lon="2.44192">
        <ele>89</ele>
        <time>2017-05-07T07:51:24.000Z</time>
      </trkpt>
      <trkpt lat="48.29613" lon="2.44188">
        <ele>89</ele>
        <time>2017-05-07T07:51:25.000Z</time>
      </trkpt>
      <trkpt lat="48.29612" lon="2.44183">
        <ele>89</ele>
        <time>2017-05-07T07:51:26.000Z</time>
      </trkpt>
      <trkpt lat="48.29611" lon="2.44178">
        <ele>89</ele>
        <time>2017-05-07T07:51:27.000Z</time>
      </trkpt>
      <trkpt lat="48.2961" lon="2.44168">
        <ele>89</ele>
        <time>2017-05-07T07:51:29.000Z</time>
      </trkpt>
      <trkpt lat="48.29607" lon="2.44153">
        <ele>87</ele>
        <time>2017-05-07T07:51:32.000Z</time>
      </trkpt>
      <trkpt lat="48.29606" lon="2.44149">
        <ele>87</ele>
        <time>2017-05-07T07:51:33.000Z</time>
      </trkpt>
      <trkpt lat="48.29602" lon="2.44142">
        <ele>87</ele>
        <time>2017-05-07T07:51:35.000Z</time>
      </trkpt>
      <trkpt lat="48.29591" lon="2.44136">
        <ele>87</ele>
        <time>2017-05-07T07:51:37.000Z</time>
      </trkpt>
      <trkpt lat="48.29587" lon="2.44132">
        <ele>87</ele>
        <time>2017-05-07T07:51:38.000Z</time>
      </trkpt>
      <trkpt lat="48.29577" lon="2.4412">
        <ele>85</ele>
        <time>2017-05-07T07:51:41.000Z</time>
      </trkpt>
      <trkpt lat="48.29569" lon="2.44113">
        <ele>85</ele>
        <time>2017-05-07T07:51:43.000Z</time>
      </trkpt>
      <trkpt lat="48.29555" lon="2.44105">
        <ele>85</ele>
        <time>2017-05-07T07:51:46.000Z</time>
      </trkpt>
      <trkpt lat="48.29541" lon="2.44104">
        <ele>85</ele>
        <time>2017-05-07T07:51:49.000Z</time>
      </trkpt>
      <trkpt lat="48.29539" lon="2.44101">
        <ele>85</ele>
        <time>2017-05-07T07:51:50.000Z</time>
      </trkpt>
      <trkpt lat="48.29542" lon="2.44083">
        <ele>84</ele>
        <time>2017-05-07T07:51:54.000Z</time>
      </trkpt>
      <trkpt lat="48.29542" lon="2.44074">
        <ele>84</ele>
        <time>2017-05-07T07:51:56.000Z</time>
      </trkpt>
      <trkpt lat="48.29544" lon="2.44057">
        <ele>84</ele>
        <time>2017-05-07T07:51:59.000Z</time>
      </trkpt>
      <trkpt lat="48.29541" lon="2.44043">
        <ele>84</ele>
        <time>2017-05-07T07:52:02.000Z</time>
      </trkpt>
      <trkpt lat="48.29533" lon="2.44031">
        <ele>84</ele>
        <time>2017-05-07T07:52:05.000Z</time>
      </trkpt>
      <trkpt lat="48.2953" lon="2.44018">
        <ele>84</ele>
        <time>2017-05-07T07:52:07.000Z</time>
      </trkpt>
      <trkpt lat="48.29529" lon="2.4401">
        <ele>84</ele>
        <time>2017-05-07T07:52:08.000Z</time>
      </trkpt>
      <trkpt lat="48.29523" lon="2.43988">
        <ele>85</ele>
        <time>2017-05-07T07:52:11.000Z</time>
      </trkpt>
      <trkpt lat="48.29516" lon="2.43966">
        <ele>85</ele>
        <time>2017-05-07T07:52:14.000Z</time>
      </trkpt>
      <trkpt lat="48.29515" lon="2.43958">
        <ele>85</ele>
        <time>2017-05-07T07:52:15.000Z</time>
      </trkpt>
      <trkpt lat="48.29513" lon="2.4395">
        <ele>85</ele>
        <time>2017-05-07T07:52:16.000Z</time>
      </trkpt>
      <trkpt lat="48.29509" lon="2.43927">
        <ele>85</ele>
        <time>2017-05-07T07:52:19.000Z</time>
      </trkpt>
      <trkpt lat="48.29505" lon="2.43913">
        <ele>85</ele>
        <time>2017-05-07T07:52:21.000Z</time>
      </trkpt>
      <trkpt lat="48.29496" lon="2.43887">
        <ele>85</ele>
        <time>2017-05-07T07:52:25.000Z</time>
      </trkpt>
      <trkpt lat="48.29495" lon="2.4388">
        <ele>85</ele>
        <time>2017-05-07T07:52:26.000Z</time>
      </trkpt>
      <trkpt lat="48.29495" lon="2.43869">
        <ele>85</ele>
        <time>2017-05-07T07:52:28.000Z</time>
      </trkpt>
      <trkpt lat="48.29499" lon="2.43859">
        <ele>84</ele>
        <time>2017-05-07T07:52:30.000Z</time>
      </trkpt>
      <trkpt lat="48.29499" lon="2.43834">
        <ele>83</ele>
        <time>2017-05-07T07:52:34.000Z</time>
      </trkpt>
      <trkpt lat="48.29498" lon="2.43828">
        <ele>83</ele>
        <time>2017-05-07T07:52:35.000Z</time>
      </trkpt>
      <trkpt lat="48.29494" lon="2.43815">
        <ele>83</ele>
        <time>2017-05-07T07:52:37.000Z</time>
      </trkpt>
      <trkpt lat="48.29491" lon="2.43802">
        <ele>82</ele>
        <time>2017-05-07T07:52:39.000Z</time>
      </trkpt>
      <trkpt lat="48.29488" lon="2.43789">
        <ele>82</ele>
        <time>2017-05-07T07:52:41.000Z</time>
      </trkpt>
      <trkpt lat="48.2948" lon="2.43775">
        <ele>82</ele>
        <time>2017-05-07T07:52:44.000Z</time>
      </trkpt>
      <trkpt lat="48.29474" lon="2.43757">
        <ele>81</ele>
        <time>2017-05-07T07:52:47.000Z</time>
      </trkpt>
      <trkpt lat="48.29473" lon="2.43752">
        <ele>81</ele>
        <time>2017-05-07T07:52:48.000Z</time>
      </trkpt>
      <trkpt lat="48.29473" lon="2.43743">
        <ele>80</ele>
        <time>2017-05-07T07:52:50.000Z</time>
      </trkpt>
      <trkpt lat="48.29473" lon="2.43741">
        <ele>80</ele>
        <time>2017-05-07T07:52:51.000Z</time>
      </trkpt>
      <trkpt lat="48.29479" lon="2.43736">
        <ele>80</ele>
        <time>2017-05-07T07:52:55.000Z</time>
      </trkpt>
      <trkpt lat="48.29479" lon="2.43726">
        <ele>79</ele>
        <time>2017-05-07T07:52:59.000Z</time>
      </trkpt>
      <trkpt lat="48.29476" lon="2.43715">
        <ele>79</ele>
        <time>2017-05-07T07:53:02.000Z</time>
      </trkpt>
      <trkpt lat="48.29476" lon="2.4371">
        <ele>79</ele>
        <time>2017-05-07T07:53:03.000Z</time>
      </trkpt>
      <trkpt lat="48.29481" lon="2.43697">
        <ele>79</ele>
        <time>2017-05-07T07:53:06.000Z</time>
      </trkpt>
      <trkpt lat="48.29486" lon="2.43687">
        <ele>79</ele>
        <time>2017-05-07T07:53:09.000Z</time>
      </trkpt>
      <trkpt lat="48.29488" lon="2.43684">
        <ele>79</ele>
        <time>2017-05-07T07:53:10.000Z</time>
      </trkpt>
      <trkpt lat="48.2949" lon="2.43673">
        <ele>79</ele>
        <time>2017-05-07T07:53:13.000Z</time>
      </trkpt>
      <trkpt lat="48.29495" lon="2.43646">
        <ele>80</ele>
        <time>2017-05-07T07:53:19.000Z</time>
      </trkpt>
      <trkpt lat="48.29501" lon="2.43626">
        <ele>83</ele>
        <time>2017-05-07T07:53:23.000Z</time>
      </trkpt>
      <trkpt lat="48.29505" lon="2.4362">
        <ele>83</ele>
        <time>2017-05-07T07:53:25.000Z</time>
      </trkpt>
      <trkpt lat="48.29505" lon="2.4362">
        <ele>83</ele>
        <time>2017-05-07T07:53:26.000Z</time>
      </trkpt>
      <trkpt lat="48.29507" lon="2.43619">
        <ele>84</ele>
        <time>2017-05-07T07:53:27.000Z</time>
      </trkpt>
      <trkpt lat="48.29508" lon="2.43619">
        <ele>84</ele>
        <time>2017-05-07T07:53:32.000Z</time>
      </trkpt>
      <trkpt lat="48.2951" lon="2.43618">
        <ele>84</ele>
        <time>2017-05-07T07:53:36.000Z</time>
      </trkpt>
      <trkpt lat="48.2951" lon="2.43617">
        <ele>84</ele>
        <time>2017-05-07T07:53:37.000Z</time>
      </trkpt>
      <trkpt lat="48.29511" lon="2.43617">
        <ele>84</ele>
        <time>2017-05-07T07:53:44.000Z</time>
      </trkpt>
      <trkpt lat="48.29511" lon="2.43617">
        <ele>84</ele>
        <time>2017-05-07T07:53:45.000Z</time>
      </trkpt>
      <trkpt lat="48.29516" lon="2.43612">
        <ele>84</ele>
        <time>2017-05-07T07:53:51.000Z</time>
      </trkpt>
      <trkpt lat="48.29517" lon="2.43611">
        <ele>84</ele>
        <time>2017-05-07T07:53:56.000Z</time>
      </trkpt>
      <trkpt lat="48.29517" lon="2.43611">
        <ele>84</ele>
        <time>2017-05-07T07:53:58.000Z</time>
      </trkpt>
      <trkpt lat="48.29518" lon="2.43608">
        <ele>84</ele>
        <time>2017-05-07T07:54:03.000Z</time>
      </trkpt>
      <trkpt lat="48.29519" lon="2.43607">
        <ele>84</ele>
        <time>2017-05-07T07:54:05.000Z</time>
      </trkpt>
      <trkpt lat="48.29519" lon="2.43607">
        <ele>84</ele>
        <time>2017-05-07T07:54:10.000Z</time>
      </trkpt>
      <trkpt lat="48.2952" lon="2.43604">
        <ele>84</ele>
        <time>2017-05-07T07:54:17.000Z</time>
      </trkpt>
      <trkpt lat="48.29521" lon="2.43601">
        <ele>84</ele>
        <time>2017-05-07T07:54:20.000Z</time>
      </trkpt>
      <trkpt lat="48.29522" lon="2.43599">
        <ele>84</ele>
        <time>2017-05-07T07:54:23.000Z</time>
      </trkpt>
      <trkpt lat="48.29525" lon="2.43597">
        <ele>84</ele>
        <time>2017-05-07T07:54:31.000Z</time>
      </trkpt>
      <trkpt lat="48.29525" lon="2.43597">
        <ele>84</ele>
        <time>2017-05-07T07:54:32.000Z</time>
      </trkpt>
      <trkpt lat="48.29526" lon="2.43598">
        <ele>84</ele>
        <time>2017-05-07T07:54:39.000Z</time>
      </trkpt>
      <trkpt lat="48.29527" lon="2.43597">
        <ele>84</ele>
        <time>2017-05-07T07:54:46.000Z</time>
      </trkpt>
      <trkpt lat="48.29527" lon="2.43597">
        <ele>84</ele>
        <time>2017-05-07T07:54:55.000Z</time>
      </trkpt>
      <trkpt lat="48.29528" lon="2.43596">
        <ele>85</ele>
        <time>2017-05-07T07:55:04.000Z</time>
      </trkpt>
      <trkpt lat="48.29528" lon="2.43596">
        <ele>85</ele>
        <time>2017-05-07T07:55:09.000Z</time>
      </trkpt>
      <trkpt lat="48.2953" lon="2.43596">
        <ele>85</ele>
        <time>2017-05-07T07:55:10.000Z</time>
      </trkpt>
      <trkpt lat="48.29531" lon="2.43597">
        <ele>85</ele>
        <time>2017-05-07T07:55:11.000Z</time>
      </trkpt>
      <trkpt lat="48.29536" lon="2.43598">
        <ele>85</ele>
        <time>2017-05-07T07:55:17.000Z</time>
      </trkpt>
      <trkpt lat="48.29537" lon="2.43598">
        <ele>85</ele>
        <time>2017-05-07T07:55:18.000Z</time>
      </trkpt>
      <trkpt lat="48.29539" lon="2.436">
        <ele>85</ele>
        <time>2017-05-07T07:55:23.000Z</time>
      </trkpt>
      <trkpt lat="48.29541" lon="2.43602">
        <ele>85</ele>
        <time>2017-05-07T07:55:25.000Z</time>
      </trkpt>
      <trkpt lat="48.29542" lon="2.43604">
        <ele>85</ele>
        <time>2017-05-07T07:55:28.000Z</time>
      </trkpt>
      <trkpt lat="48.29545" lon="2.43607">
        <ele>85</ele>
        <time>2017-05-07T07:55:34.000Z</time>
      </trkpt>
      <trkpt lat="48.29545" lon="2.43608">
        <ele>86</ele>
        <time>2017-05-07T07:55:35.000Z</time>
      </trkpt>
      <trkpt lat="48.29549" lon="2.43616">
        <ele>86</ele>
        <time>2017-05-07T07:55:41.000Z</time>
      </trkpt>
      <trkpt lat="48.29549" lon="2.43617">
        <ele>86</ele>
        <time>2017-05-07T07:55:42.000Z</time>
      </trkpt>
      <trkpt lat="48.2955" lon="2.4362">
        <ele>86</ele>
        <time>2017-05-07T07:55:47.000Z</time>
      </trkpt>
      <trkpt lat="48.29551" lon="2.43621">
        <ele>86</ele>
        <time>2017-05-07T07:55:51.000Z</time>
      </trkpt>
      <trkpt lat="48.29552" lon="2.43624">
        <ele>86</ele>
        <time>2017-05-07T07:55:53.000Z</time>
      </trkpt>
      <trkpt lat="48.29559" lon="2.4363">
        <ele>86</ele>
        <time>2017-05-07T07:55:58.000Z</time>
      </trkpt>
      <trkpt lat="48.29562" lon="2.43634">
        <ele>86</ele>
        <time>2017-05-07T07:56:00.000Z</time>
      </trkpt>
      <trkpt lat="48.29565" lon="2.43638">
        <ele>86</ele>
        <time>2017-05-07T07:56:02.000Z</time>
      </trkpt>
      <trkpt lat="48.2957" lon="2.43638">
        <ele>86</ele>
        <time>2017-05-07T07:56:05.000Z</time>
      </trkpt>
      <trkpt lat="48.29572" lon="2.43636">
        <ele>86</ele>
        <time>2017-05-07T07:56:06.000Z</time>
      </trkpt>
      <trkpt lat="48.29576" lon="2.4363">
        <ele>86</ele>
        <time>2017-05-07T07:56:09.000Z</time>
      </trkpt>
      <trkpt lat="48.29582" lon="2.4363">
        <ele>87</ele>
        <time>2017-05-07T07:56:11.000Z</time>
      </trkpt>
      <trkpt lat="48.29592" lon="2.43645">
        <ele>92</ele>
        <time>2017-05-07T07:56:16.000Z</time>
      </trkpt>
      <trkpt lat="48.29595" lon="2.43649">
        <ele>92</ele>
        <time>2017-05-07T07:56:17.000Z</time>
      </trkpt>
      <trkpt lat="48.29607" lon="2.43661">
        <ele>93</ele>
        <time>2017-05-07T07:56:21.000Z</time>
      </trkpt>
      <trkpt lat="48.29614" lon="2.43675">
        <ele>93</ele>
        <time>2017-05-07T07:56:24.000Z</time>
      </trkpt>
      <trkpt lat="48.29616" lon="2.43679">
        <ele>94</ele>
        <time>2017-05-07T07:56:25.000Z</time>
      </trkpt>
      <trkpt lat="48.2962" lon="2.43685">
        <ele>94</ele>
        <time>2017-05-07T07:56:27.000Z</time>
      </trkpt>
      <trkpt lat="48.29625" lon="2.43687">
        <ele>95</ele>
        <time>2017-05-07T07:56:29.000Z</time>
      </trkpt>
      <trkpt lat="48.29632" lon="2.43691">
        <ele>95</ele>
        <time>2017-05-07T07:56:33.000Z</time>
      </trkpt>
      <trkpt lat="48.29636" lon="2.43697">
        <ele>96</ele>
        <time>2017-05-07T07:56:39.000Z</time>
      </trkpt>
      <trkpt lat="48.29639" lon="2.437">
        <ele>96</ele>
        <time>2017-05-07T07:56:41.000Z</time>
      </trkpt>
      <trkpt lat="48.29643" lon="2.43703">
        <ele>96</ele>
        <time>2017-05-07T07:56:45.000Z</time>
      </trkpt>
      <trkpt lat="48.29645" lon="2.43705">
        <ele>96</ele>
        <time>2017-05-07T07:56:48.000Z</time>
      </trkpt>
      <trkpt lat="48.29648" lon="2.43709">
        <ele>96</ele>
        <time>2017-05-07T07:56:50.000Z</time>
      </trkpt>
      <trkpt lat="48.29651" lon="2.43713">
        <ele>97</ele>
        <time>2017-05-07T07:56:55.000Z</time>
      </trkpt>
      <trkpt lat="48.29652" lon="2.43714">
        <ele>97</ele>
        <time>2017-05-07T07:56:56.000Z</time>
      </trkpt>
      <trkpt lat="48.29654" lon="2.43714">
        <ele>97</ele>
        <time>2017-05-07T07:57:01.000Z</time>
      </trkpt>
      <trkpt lat="48.29654" lon="2.43715">
        <ele>97</ele>
        <time>2017-05-07T07:57:02.000Z</time>
      </trkpt>
      <trkpt lat="48.29657" lon="2.43719">
        <ele>97</ele>
        <time>2017-05-07T07:57:06.000Z</time>
      </trkpt>
      <trkpt lat="48.29659" lon="2.43722">
        <ele>97</ele>
        <time>2017-05-07T07:57:09.000Z</time>
      </trkpt>
      <trkpt lat="48.2966" lon="2.43725">
        <ele>98</ele>
        <time>2017-05-07T07:57:11.000Z</time>
      </trkpt>
      <trkpt lat="48.29662" lon="2.43726">
        <ele>98</ele>
        <time>2017-05-07T07:57:16.000Z</time>
      </trkpt>
      <trkpt lat="48.29665" lon="2.4373">
        <ele>98</ele>
        <time>2017-05-07T07:57:22.000Z</time>
      </trkpt>
      <trkpt lat="48.29666" lon="2.43731">
        <ele>99</ele>
        <time>2017-05-07T07:57:23.000Z</time>
      </trkpt>
      <trkpt lat="48.29669" lon="2.43737">
        <ele>104</ele>
        <time>2017-05-07T07:57:28.000Z</time>
      </trkpt>
      <trkpt lat="48.29672" lon="2.43739">
        <ele>104</ele>
        <time>2017-05-07T07:57:31.000Z</time>
      </trkpt>
      <trkpt lat="48.29675" lon="2.43739">
        <ele>104</ele>
        <time>2017-05-07T07:57:35.000Z</time>
      </trkpt>
      <trkpt lat="48.29675" lon="2.43739">
        <ele>104</ele>
        <time>2017-05-07T07:57:38.000Z</time>
      </trkpt>
      <trkpt lat="48.29678" lon="2.4374">
        <ele>104</ele>
        <time>2017-05-07T07:57:41.000Z</time>
      </trkpt>
      <trkpt lat="48.29682" lon="2.43745">
        <ele>104</ele>
        <time>2017-05-07T07:57:45.000Z</time>
      </trkpt>
      <trkpt lat="48.29685" lon="2.4375">
        <ele>105</ele>
        <time>2017-05-07T07:57:50.000Z</time>
      </trkpt>
      <trkpt lat="48.29687" lon="2.43753">
        <ele>105</ele>
        <time>2017-05-07T07:57:51.000Z</time>
      </trkpt>
      <trkpt lat="48.29693" lon="2.43759">
        <ele>106</ele>
        <time>2017-05-07T07:57:57.000Z</time>
      </trkpt>
      <trkpt lat="48.29697" lon="2.43762">
        <ele>106</ele>
        <time>2017-05-07T07:58:03.000Z</time>
      </trkpt>
      <trkpt lat="48.29697" lon="2.43762">
        <ele>106</ele>
        <time>2017-05-07T07:58:04.000Z</time>
      </trkpt>
      <trkpt lat="48.29697" lon="2.43762">
        <ele>106</ele>
        <time>2017-05-07T07:58:11.000Z</time>
      </trkpt>
      <trkpt lat="48.29699" lon="2.43763">
        <ele>106</ele>
        <time>2017-05-07T07:58:18.000Z</time>
      </trkpt>
      <trkpt lat="48.29701" lon="2.43768">
        <ele>107</ele>
        <time>2017-05-07T07:58:22.000Z</time>
      </trkpt>
      <trkpt lat="48.29703" lon="2.43771">
        <ele>107</ele>
        <time>2017-05-07T07:58:26.000Z</time>
      </trkpt>
      <trkpt lat="48.29707" lon="2.43776">
        <ele>107</ele>
        <time>2017-05-07T07:58:30.000Z</time>
      </trkpt>
      <trkpt lat="48.2971" lon="2.43778">
        <ele>107</ele>
        <time>2017-05-07T07:58:36.000Z</time>
      </trkpt>
      <trkpt lat="48.2971" lon="2.43779">
        <ele>107</ele>
        <time>2017-05-07T07:58:43.000Z</time>
      </trkpt>
      <trkpt lat="48.29712" lon="2.43784">
        <ele>107</ele>
        <time>2017-05-07T07:58:48.000Z</time>
      </trkpt>
      <trkpt lat="48.29714" lon="2.43786">
        <ele>107</ele>
        <time>2017-05-07T07:58:49.000Z</time>
      </trkpt>
      <trkpt lat="48.29715" lon="2.43787">
        <ele>107</ele>
        <time>2017-05-07T07:58:50.000Z</time>
      </trkpt>
      <trkpt lat="48.29717" lon="2.43789">
        <ele>108</ele>
        <time>2017-05-07T07:58:52.000Z</time>
      </trkpt>
      <trkpt lat="48.29721" lon="2.43791">
        <ele>108</ele>
        <time>2017-05-07T07:58:54.000Z</time>
      </trkpt>
      <trkpt lat="48.29722" lon="2.43791">
        <ele>108</ele>
        <time>2017-05-07T07:58:56.000Z</time>
      </trkpt>
      <trkpt lat="48.2973" lon="2.43793">
        <ele>108</ele>
        <time>2017-05-07T07:59:02.000Z</time>
      </trkpt>
      <trkpt lat="48.29734" lon="2.43793">
        <ele>109</ele>
        <time>2017-05-07T07:59:04.000Z</time>
      </trkpt>
      <trkpt lat="48.29742" lon="2.43791">
        <ele>109</ele>
        <time>2017-05-07T07:59:10.000Z</time>
      </trkpt>
      <trkpt lat="48.2975" lon="2.43788">
        <ele>109</ele>
        <time>2017-05-07T07:59:16.000Z</time>
      </trkpt>
      <trkpt lat="48.29752" lon="2.43789">
        <ele>114</ele>
        <time>2017-05-07T07:59:18.000Z</time>
      </trkpt>
      <trkpt lat="48.2976" lon="2.43786">
        <ele>114</ele>
        <time>2017-05-07T07:59:22.000Z</time>
      </trkpt>
      <trkpt lat="48.29772" lon="2.43786">
        <ele>114</ele>
        <time>2017-05-07T07:59:27.000Z</time>
      </trkpt>
      <trkpt lat="48.29774" lon="2.43788">
        <ele>114</ele>
        <time>2017-05-07T07:59:28.000Z</time>
      </trkpt>
      <trkpt lat="48.29781" lon="2.43796">
        <ele>114</ele>
        <time>2017-05-07T07:59:31.000Z</time>
      </trkpt>
      <trkpt lat="48.29789" lon="2.43814">
        <ele>114</ele>
        <time>2017-05-07T07:59:36.000Z</time>
      </trkpt>
      <trkpt lat="48.29788" lon="2.43813">
        <ele>114</ele>
        <time>2017-05-07T07:59:37.000Z</time>
      </trkpt>
      <trkpt lat="48.29792" lon="2.43814">
        <ele>114</ele>
        <time>2017-05-07T07:59:38.000Z</time>
      </trkpt>
      <trkpt lat="48.29799" lon="2.43806">
        <ele>114</ele>
        <time>2017-05-07T07:59:41.000Z</time>
      </trkpt>
      <trkpt lat="48.29811" lon="2.43788">
        <ele>114</ele>
        <time>2017-05-07T07:59:46.000Z</time>
      </trkpt>
      <trkpt lat="48.29814" lon="2.43781">
        <ele>114</ele>
        <time>2017-05-07T07:59:48.000Z</time>
      </trkpt>
      <trkpt lat="48.29829" lon="2.43755">
        <ele>116</ele>
        <time>2017-05-07T07:59:54.000Z</time>
      </trkpt>
      <trkpt lat="48.29833" lon="2.43748">
        <ele>116</ele>
        <time>2017-05-07T07:59:56.000Z</time>
      </trkpt>
      <trkpt lat="48.29838" lon="2.43734">
        <ele>115</ele>
        <time>2017-05-07T08:00:00.000Z</time>
      </trkpt>
      <trkpt lat="48.2985" lon="2.4371">
        <ele>114</ele>
        <time>2017-05-07T08:00:06.000Z</time>
      </trkpt>
      <trkpt lat="48.29862" lon="2.43663">
        <ele>114</ele>
        <time>2017-05-07T08:00:14.000Z</time>
      </trkpt>
      <trkpt lat="48.29866" lon="2.43641">
        <ele>114</ele>
        <time>2017-05-07T08:00:18.000Z</time>
      </trkpt>
      <trkpt lat="48.29866" lon="2.43632">
        <ele>114</ele>
        <time>2017-05-07T08:00:20.000Z</time>
      </trkpt>
      <trkpt lat="48.2987" lon="2.43595">
        <ele>114</ele>
        <time>2017-05-07T08:00:27.000Z</time>
      </trkpt>
      <trkpt lat="48.29873" lon="2.43564">
        <ele>116</ele>
        <time>2017-05-07T08:00:33.000Z</time>
      </trkpt>
      <trkpt lat="48.29875" lon="2.4354">
        <ele>116</ele>
        <time>2017-05-07T08:00:38.000Z</time>
      </trkpt>
      <trkpt lat="48.29877" lon="2.43507">
        <ele>116</ele>
        <time>2017-05-07T08:00:44.000Z</time>
      </trkpt>
      <trkpt lat="48.29882" lon="2.43465">
        <ele>117</ele>
        <time>2017-05-07T08:00:51.000Z</time>
      </trkpt>
      <trkpt lat="48.29888" lon="2.43435">
        <ele>117</ele>
        <time>2017-05-07T08:00:56.000Z</time>
      </trkpt>
      <trkpt lat="48.29898" lon="2.43426">
        <ele>117</ele>
        <time>2017-05-07T08:01:02.000Z</time>
      </trkpt>
      <trkpt lat="48.29901" lon="2.43425">
        <ele>117</ele>
        <time>2017-05-07T08:01:06.000Z</time>
      </trkpt>
      <trkpt lat="48.29907" lon="2.4342">
        <ele>118</ele>
        <time>2017-05-07T08:01:07.000Z</time>
      </trkpt>
      <trkpt lat="48.2991" lon="2.43417">
        <ele>118</ele>
        <time>2017-05-07T08:01:08.000Z</time>
      </trkpt>
      <trkpt lat="48.29922" lon="2.43415">
        <ele>118</ele>
        <time>2017-05-07T08:01:12.000Z</time>
      </trkpt>
      <trkpt lat="48.29925" lon="2.43415">
        <ele>118</ele>
        <time>2017-05-07T08:01:13.000Z</time>
      </trkpt>
      <trkpt lat="48.29941" lon="2.43415">
        <ele>118</ele>
        <time>2017-05-07T08:01:19.000Z</time>
      </trkpt>
      <trkpt lat="48.29943" lon="2.43416">
        <ele>118</ele>
        <time>2017-05-07T08:01:20.000Z</time>
      </trkpt>
      <trkpt lat="48.29956" lon="2.43421">
        <ele>118</ele>
        <time>2017-05-07T08:01:24.000Z</time>
      </trkpt>
      <trkpt lat="48.29966" lon="2.43428">
        <ele>118</ele>
        <time>2017-05-07T08:01:28.000Z</time>
      </trkpt>
      <trkpt lat="48.29978" lon="2.43435">
        <ele>118</ele>
        <time>2017-05-07T08:01:33.000Z</time>
      </trkpt>
      <trkpt lat="48.29981" lon="2.43438">
        <ele>118</ele>
        <time>2017-05-07T08:01:34.000Z</time>
      </trkpt>
      <trkpt lat="48.29999" lon="2.43457">
        <ele>118</ele>
        <time>2017-05-07T08:01:39.000Z</time>
      </trkpt>
      <trkpt lat="48.30006" lon="2.43477">
        <ele>118</ele>
        <time>2017-05-07T08:01:43.000Z</time>
      </trkpt>
      <trkpt lat="48.30012" lon="2.4349">
        <ele>118</ele>
        <time>2017-05-07T08:01:46.000Z</time>
      </trkpt>
      <trkpt lat="48.30015" lon="2.43494">
        <ele>118</ele>
        <time>2017-05-07T08:01:47.000Z</time>
      </trkpt>
      <trkpt lat="48.30029" lon="2.4351">
        <ele>118</ele>
        <time>2017-05-07T08:01:52.000Z</time>
      </trkpt>
      <trkpt lat="48.30049" lon="2.4352">
        <ele>117</ele>
        <time>2017-05-07T08:01:59.000Z</time>
      </trkpt>
      <trkpt lat="48.30068" lon="2.43524">
        <ele>117</ele>
        <time>2017-05-07T08:02:04.000Z</time>
      </trkpt>
      <trkpt lat="48.30089" lon="2.43531">
        <ele>116</ele>
        <time>2017-05-07T08:02:08.000Z</time>
      </trkpt>
      <trkpt lat="48.301" lon="2.4353">
        <ele>116</ele>
        <time>2017-05-07T08:02:10.000Z</time>
      </trkpt>
      <trkpt lat="48.30117" lon="2.43529">
        <ele>115</ele>
        <time>2017-05-07T08:02:14.000Z</time>
      </trkpt>
      <trkpt lat="48.30122" lon="2.4353">
        <ele>115</ele>
        <time>2017-05-07T08:02:16.000Z</time>
      </trkpt>
      <trkpt lat="48.30128" lon="2.43529">
        <ele>115</ele>
        <time>2017-05-07T08:02:18.000Z</time>
      </trkpt>
      <trkpt lat="48.30131" lon="2.43528">
        <ele>115</ele>
        <time>2017-05-07T08:02:19.000Z</time>
      </trkpt>
      <trkpt lat="48.30142" lon="2.43522">
        <ele>115</ele>
        <time>2017-05-07T08:02:22.000Z</time>
      </trkpt>
      <trkpt lat="48.30145" lon="2.43521">
        <ele>115</ele>
        <time>2017-05-07T08:02:23.000Z</time>
      </trkpt>
      <trkpt lat="48.30152" lon="2.43519">
        <ele>114</ele>
        <time>2017-05-07T08:02:25.000Z</time>
      </trkpt>
      <trkpt lat="48.30158" lon="2.43515">
        <ele>114</ele>
        <time>2017-05-07T08:02:27.000Z</time>
      </trkpt>
      <trkpt lat="48.30163" lon="2.43512">
        <ele>114</ele>
        <time>2017-05-07T08:02:29.000Z</time>
      </trkpt>
      <trkpt lat="48.30166" lon="2.43509">
        <ele>114</ele>
        <time>2017-05-07T08:02:30.000Z</time>
      </trkpt>
      <trkpt lat="48.30169" lon="2.43504">
        <ele>112</ele>
        <time>2017-05-07T08:02:32.000Z</time>
      </trkpt>
      <trkpt lat="48.30169" lon="2.43501">
        <ele>112</ele>
        <time>2017-05-07T08:02:33.000Z</time>
      </trkpt>
      <trkpt lat="48.30166" lon="2.43477">
        <ele>113</ele>
        <time>2017-05-07T08:02:40.000Z</time>
      </trkpt>
      <trkpt lat="48.30165" lon="2.43465">
        <ele>112</ele>
        <time>2017-05-07T08:02:42.000Z</time>
      </trkpt>
      <trkpt lat="48.30161" lon="2.43451">
        <ele>112</ele>
        <time>2017-05-07T08:02:44.000Z</time>
      </trkpt>
      <trkpt lat="48.30155" lon="2.43432">
        <ele>111</ele>
        <time>2017-05-07T08:02:47.000Z</time>
      </trkpt>
      <trkpt lat="48.30152" lon="2.43419">
        <ele>110</ele>
        <time>2017-05-07T08:02:49.000Z</time>
      </trkpt>
      <trkpt lat="48.30147" lon="2.434">
        <ele>109</ele>
        <time>2017-05-07T08:02:52.000Z</time>
      </trkpt>
      <trkpt lat="48.30144" lon="2.43394">
        <ele>109</ele>
        <time>2017-05-07T08:02:53.000Z</time>
      </trkpt>
      <trkpt lat="48.30143" lon="2.43387">
        <ele>109</ele>
        <time>2017-05-07T08:02:54.000Z</time>
      </trkpt>
      <trkpt lat="48.30142" lon="2.4338">
        <ele>109</ele>
        <time>2017-05-07T08:02:55.000Z</time>
      </trkpt>
      <trkpt lat="48.30142" lon="2.43364">
        <ele>108</ele>
        <time>2017-05-07T08:02:58.000Z</time>
      </trkpt>
      <trkpt lat="48.30141" lon="2.43355">
        <ele>108</ele>
        <time>2017-05-07T08:03:00.000Z</time>
      </trkpt>
      <trkpt lat="48.3014" lon="2.43344">
        <ele>107</ele>
        <time>2017-05-07T08:03:02.000Z</time>
      </trkpt>
      <trkpt lat="48.30136" lon="2.43335">
        <ele>107</ele>
        <time>2017-05-07T08:03:04.000Z</time>
      </trkpt>
      <trkpt lat="48.30134" lon="2.43333">
        <ele>103</ele>
        <time>2017-05-07T08:03:05.000Z</time>
      </trkpt>
      <trkpt lat="48.30129" lon="2.43322">
        <ele>104</ele>
        <time>2017-05-07T08:03:08.000Z</time>
      </trkpt>
      <trkpt lat="48.30115" lon="2.43304">
        <ele>104</ele>
        <time>2017-05-07T08:03:14.000Z</time>
      </trkpt>
      <trkpt lat="48.3011" lon="2.43297">
        <ele>104</ele>
        <time>2017-05-07T08:03:16.000Z</time>
      </trkpt>
      <trkpt lat="48.30104" lon="2.43288">
        <ele>104</ele>
        <time>2017-05-07T08:03:19.000Z</time>
      </trkpt>
      <trkpt lat="48.30091" lon="2.43267">
        <ele>104</ele>
        <time>2017-05-07T08:03:25.000Z</time>
      </trkpt>
      <trkpt lat="48.3008" lon="2.43244">
        <ele>106</ele>
        <time>2017-05-07T08:03:30.000Z</time>
      </trkpt>
      <trkpt lat="48.30074" lon="2.43228">
        <ele>107</ele>
        <time>2017-05-07T08:03:33.000Z</time>
      </trkpt>
      <trkpt lat="48.30072" lon="2.43223">
        <ele>107</ele>
        <time>2017-05-07T08:03:34.000Z</time>
      </trkpt>
      <trkpt lat="48.30058" lon="2.43202">
        <ele>108</ele>
        <time>2017-05-07T08:03:39.000Z</time>
      </trkpt>
      <trkpt lat="48.30051" lon="2.43187">
        <ele>108</ele>
        <time>2017-05-07T08:03:43.000Z</time>
      </trkpt>
      <trkpt lat="48.30048" lon="2.43184">
        <ele>108</ele>
        <time>2017-05-07T08:03:44.000Z</time>
      </trkpt>
      <trkpt lat="48.30039" lon="2.43172">
        <ele>109</ele>
        <time>2017-05-07T08:03:48.000Z</time>
      </trkpt>
      <trkpt lat="48.30037" lon="2.4317">
        <ele>109</ele>
        <time>2017-05-07T08:03:49.000Z</time>
      </trkpt>
      <trkpt lat="48.30031" lon="2.43159">
        <ele>107</ele>
        <time>2017-05-07T08:03:53.000Z</time>
      </trkpt>
      <trkpt lat="48.30027" lon="2.43151">
        <ele>108</ele>
        <time>2017-05-07T08:03:56.000Z</time>
      </trkpt>
      <trkpt lat="48.30022" lon="2.43145">
        <ele>108</ele>
        <time>2017-05-07T08:03:59.000Z</time>
      </trkpt>
      <trkpt lat="48.30013" lon="2.43132">
        <ele>108</ele>
        <time>2017-05-07T08:04:05.000Z</time>
      </trkpt>
      <trkpt lat="48.30006" lon="2.43121">
        <ele>108</ele>
        <time>2017-05-07T08:04:12.000Z</time>
      </trkpt>
      <trkpt lat="48.30002" lon="2.43117">
        <ele>108</ele>
        <time>2017-05-07T08:04:15.000Z</time>
      </trkpt>
      <trkpt lat="48.3" lon="2.43113">
        <ele>114</ele>
        <time>2017-05-07T08:04:18.000Z</time>
      </trkpt>
      <trkpt lat="48.29994" lon="2.43106">
        <ele>113</ele>
        <time>2017-05-07T08:04:23.000Z</time>
      </trkpt>
      <trkpt lat="48.29993" lon="2.43105">
        <ele>113</ele>
        <time>2017-05-07T08:04:24.000Z</time>
      </trkpt>
      <trkpt lat="48.29986" lon="2.43099">
        <ele>113</ele>
        <time>2017-05-07T08:04:30.000Z</time>
      </trkpt>
      <trkpt lat="48.29983" lon="2.43096">
        <ele>113</ele>
        <time>2017-05-07T08:04:34.000Z</time>
      </trkpt>
      <trkpt lat="48.29981" lon="2.43095">
        <ele>113</ele>
        <time>2017-05-07T08:04:35.000Z</time>
      </trkpt>
      <trkpt lat="48.29979" lon="2.43095">
        <ele>114</ele>
        <time>2017-05-07T08:04:37.000Z</time>
      </trkpt>
      <trkpt lat="48.29976" lon="2.43093">
        <ele>114</ele>
        <time>2017-05-07T08:04:39.000Z</time>
      </trkpt>
      <trkpt lat="48.29972" lon="2.43086">
        <ele>114</ele>
        <time>2017-05-07T08:04:43.000Z</time>
      </trkpt>
      <trkpt lat="48.29972" lon="2.43062">
        <ele>112</ele>
        <time>2017-05-07T08:04:48.000Z</time>
      </trkpt>
      <trkpt lat="48.29974" lon="2.43057">
        <ele>112</ele>
        <time>2017-05-07T08:04:49.000Z</time>
      </trkpt>
      <trkpt lat="48.29976" lon="2.43041">
        <ele>111</ele>
        <time>2017-05-07T08:04:52.000Z</time>
      </trkpt>
      <trkpt lat="48.29977" lon="2.43035">
        <ele>111</ele>
        <time>2017-05-07T08:04:53.000Z</time>
      </trkpt>
      <trkpt lat="48.29978" lon="2.43029">
        <ele>111</ele>
        <time>2017-05-07T08:04:54.000Z</time>
      </trkpt>
      <trkpt lat="48.29979" lon="2.43022">
        <ele>111</ele>
        <time>2017-05-07T08:04:55.000Z</time>
      </trkpt>
      <trkpt lat="48.29981" lon="2.43015">
        <ele>110</ele>
        <time>2017-05-07T08:04:56.000Z</time>
      </trkpt>
      <trkpt lat="48.29983" lon="2.43008">
        <ele>109</ele>
        <time>2017-05-07T08:04:57.000Z</time>
      </trkpt>
      <trkpt lat="48.29988" lon="2.42997">
        <ele>107</ele>
        <time>2017-05-07T08:04:59.000Z</time>
      </trkpt>
      <trkpt lat="48.29991" lon="2.42992">
        <ele>107</ele>
        <time>2017-05-07T08:05:00.000Z</time>
      </trkpt>
      <trkpt lat="48.29995" lon="2.42989">
        <ele>107</ele>
        <time>2017-05-07T08:05:01.000Z</time>
      </trkpt>
      <trkpt lat="48.29999" lon="2.42987">
        <ele>107</ele>
        <time>2017-05-07T08:05:02.000Z</time>
      </trkpt>
      <trkpt lat="48.30005" lon="2.42981">
        <ele>102</ele>
        <time>2017-05-07T08:05:04.000Z</time>
      </trkpt>
      <trkpt lat="48.3001" lon="2.42975">
        <ele>101</ele>
        <time>2017-05-07T08:05:06.000Z</time>
      </trkpt>
      <trkpt lat="48.30011" lon="2.4297">
        <ele>101</ele>
        <time>2017-05-07T08:05:08.000Z</time>
      </trkpt>
      <trkpt lat="48.30009" lon="2.4296">
        <ele>100</ele>
        <time>2017-05-07T08:05:12.000Z</time>
      </trkpt>
      <trkpt lat="48.30008" lon="2.42957">
        <ele>100</ele>
        <time>2017-05-07T08:05:13.000Z</time>
      </trkpt>
      <trkpt lat="48.30007" lon="2.42939">
        <ele>100</ele>
        <time>2017-05-07T08:05:17.000Z</time>
      </trkpt>
      <trkpt lat="48.30008" lon="2.42933">
        <ele>100</ele>
        <time>2017-05-07T08:05:18.000Z</time>
      </trkpt>
      <trkpt lat="48.30008" lon="2.42929">
        <ele>100</ele>
        <time>2017-05-07T08:05:19.000Z</time>
      </trkpt>
      <trkpt lat="48.30009" lon="2.4292">
        <ele>101</ele>
        <time>2017-05-07T08:05:21.000Z</time>
      </trkpt>
      <trkpt lat="48.30008" lon="2.4291">
        <ele>100</ele>
        <time>2017-05-07T08:05:24.000Z</time>
      </trkpt>
      <trkpt lat="48.30006" lon="2.42905">
        <ele>99</ele>
        <time>2017-05-07T08:05:25.000Z</time>
      </trkpt>
      <trkpt lat="48.29997" lon="2.42892">
        <ele>103</ele>
        <time>2017-05-07T08:05:29.000Z</time>
      </trkpt>
      <trkpt lat="48.29996" lon="2.42888">
        <ele>103</ele>
        <time>2017-05-07T08:05:30.000Z</time>
      </trkpt>
      <trkpt lat="48.29994" lon="2.42883">
        <ele>103</ele>
        <time>2017-05-07T08:05:32.000Z</time>
      </trkpt>
      <trkpt lat="48.29992" lon="2.42875">
        <ele>103</ele>
        <time>2017-05-07T08:05:35.000Z</time>
      </trkpt>
      <trkpt lat="48.29992" lon="2.42867">
        <ele>103</ele>
        <time>2017-05-07T08:05:38.000Z</time>
      </trkpt>
      <trkpt lat="48.29993" lon="2.42856">
        <ele>102</ele>
        <time>2017-05-07T08:05:41.000Z</time>
      </trkpt>
      <trkpt lat="48.29995" lon="2.4285">
        <ele>101</ele>
        <time>2017-05-07T08:05:42.000Z</time>
      </trkpt>
      <trkpt lat="48.29996" lon="2.42838">
        <ele>100</ele>
        <time>2017-05-07T08:05:44.000Z</time>
      </trkpt>
      <trkpt lat="48.29997" lon="2.42818">
        <ele>100</ele>
        <time>2017-05-07T08:05:49.000Z</time>
      </trkpt>
      <trkpt lat="48.29998" lon="2.42809">
        <ele>100</ele>
        <time>2017-05-07T08:05:51.000Z</time>
      </trkpt>
      <trkpt lat="48.29999" lon="2.42799">
        <ele>101</ele>
        <time>2017-05-07T08:05:54.000Z</time>
      </trkpt>
      <trkpt lat="48.29995" lon="2.42781">
        <ele>100</ele>
        <time>2017-05-07T08:05:59.000Z</time>
      </trkpt>
      <trkpt lat="48.29989" lon="2.4276">
        <ele>99</ele>
        <time>2017-05-07T08:06:04.000Z</time>
      </trkpt>
      <trkpt lat="48.29978" lon="2.42741">
        <ele>98</ele>
        <time>2017-05-07T08:06:09.000Z</time>
      </trkpt>
      <trkpt lat="48.29969" lon="2.42732">
        <ele>99</ele>
        <time>2017-05-07T08:06:13.000Z</time>
      </trkpt>
      <trkpt lat="48.29966" lon="2.4273">
        <ele>99</ele>
        <time>2017-05-07T08:06:14.000Z</time>
      </trkpt>
      <trkpt lat="48.29959" lon="2.42723">
        <ele>99</ele>
        <time>2017-05-07T08:06:17.000Z</time>
      </trkpt>
      <trkpt lat="48.29956" lon="2.42719">
        <ele>99</ele>
        <time>2017-05-07T08:06:19.000Z</time>
      </trkpt>
      <trkpt lat="48.29955" lon="2.42718">
        <ele>99</ele>
        <time>2017-05-07T08:06:21.000Z</time>
      </trkpt>
      <trkpt lat="48.29955" lon="2.42716">
        <ele>99</ele>
        <time>2017-05-07T08:06:23.000Z</time>
      </trkpt>
      <trkpt lat="48.29955" lon="2.42716">
        <ele>99</ele>
        <time>2017-05-07T08:06:32.000Z</time>
      </trkpt>
      <trkpt lat="48.29955" lon="2.42716">
        <ele>99</ele>
        <time>2017-05-07T08:06:34.000Z</time>
      </trkpt>
      <trkpt lat="48.29955" lon="2.42716">
        <ele>99</ele>
        <time>2017-05-07T08:06:39.000Z</time>
      </trkpt>
      <trkpt lat="48.29955" lon="2.42716">
        <ele>99</ele>
        <time>2017-05-07T08:06:46.000Z</time>
      </trkpt>
      <trkpt lat="48.29948" lon="2.42708">
        <ele>99</ele>
        <time>2017-05-07T08:06:54.000Z</time>
      </trkpt>
      <trkpt lat="48.29944" lon="2.42704">
        <ele>99</ele>
        <time>2017-05-07T08:06:55.000Z</time>
      </trkpt>
      <trkpt lat="48.29938" lon="2.42702">
        <ele>99</ele>
        <time>2017-05-07T08:06:57.000Z</time>
      </trkpt>
      <trkpt lat="48.29934" lon="2.42702">
        <ele>99</ele>
        <time>2017-05-07T08:06:59.000Z</time>
      </trkpt>
      <trkpt lat="48.29935" lon="2.42702">
        <ele>99</ele>
        <time>2017-05-07T08:07:00.000Z</time>
      </trkpt>
      <trkpt lat="48.29926" lon="2.42704">
        <ele>100</ele>
        <time>2017-05-07T08:07:06.000Z</time>
      </trkpt>
      <trkpt lat="48.29924" lon="2.42704">
        <ele>100</ele>
        <time>2017-05-07T08:07:07.000Z</time>
      </trkpt>
      <trkpt lat="48.29923" lon="2.42704">
        <ele>100</ele>
        <time>2017-05-07T08:07:08.000Z</time>
      </trkpt>
      <trkpt lat="48.29914" lon="2.42705">
        <ele>103</ele>
        <time>2017-05-07T08:07:14.000Z</time>
      </trkpt>
      <trkpt lat="48.2991" lon="2.42703">
        <ele>103</ele>
        <time>2017-05-07T08:07:17.000Z</time>
      </trkpt>
      <trkpt lat="48.29906" lon="2.427">
        <ele>103</ele>
        <time>2017-05-07T08:07:19.000Z</time>
      </trkpt>
      <trkpt lat="48.29891" lon="2.42687">
        <ele>102</ele>
        <time>2017-05-07T08:07:25.000Z</time>
      </trkpt>
      <trkpt lat="48.29885" lon="2.42682">
        <ele>102</ele>
        <time>2017-05-07T08:07:28.000Z</time>
      </trkpt>
      <trkpt lat="48.29882" lon="2.4268">
        <ele>102</ele>
        <time>2017-05-07T08:07:30.000Z</time>
      </trkpt>
      <trkpt lat="48.2987" lon="2.4267">
        <ele>102</ele>
        <time>2017-05-07T08:07:35.000Z</time>
      </trkpt>
      <trkpt lat="48.29844" lon="2.42659">
        <ele>99</ele>
        <time>2017-05-07T08:07:40.000Z</time>
      </trkpt>
      <trkpt lat="48.29824" lon="2.42657">
        <ele>96</ele>
        <time>2017-05-07T08:07:45.000Z</time>
      </trkpt>
      <trkpt lat="48.29821" lon="2.42659">
        <ele>96</ele>
        <time>2017-05-07T08:07:46.000Z</time>
      </trkpt>
      <trkpt lat="48.29814" lon="2.42666">
        <ele>95</ele>
        <time>2017-05-07T08:07:48.000Z</time>
      </trkpt>
      <trkpt lat="48.29808" lon="2.42671">
        <ele>99</ele>
        <time>2017-05-07T08:07:50.000Z</time>
      </trkpt>
      <trkpt lat="48.29807" lon="2.42674">
        <ele>99</ele>
        <time>2017-05-07T08:07:51.000Z</time>
      </trkpt>
      <trkpt lat="48.29807" lon="2.42681">
        <ele>99</ele>
        <time>2017-05-07T08:07:54.000Z</time>
      </trkpt>
      <trkpt lat="48.29807" lon="2.42684">
        <ele>99</ele>
        <time>2017-05-07T08:07:55.000Z</time>
      </trkpt>
      <trkpt lat="48.2981" lon="2.427">
        <ele>100</ele>
        <time>2017-05-07T08:08:00.000Z</time>
      </trkpt>
      <trkpt lat="48.29812" lon="2.42706">
        <ele>100</ele>
        <time>2017-05-07T08:08:03.000Z</time>
      </trkpt>
      <trkpt lat="48.29813" lon="2.42708">
        <ele>100</ele>
        <time>2017-05-07T08:08:04.000Z</time>
      </trkpt>
      <trkpt lat="48.29812" lon="2.42712">
        <ele>100</ele>
        <time>2017-05-07T08:08:06.000Z</time>
      </trkpt>
      <trkpt lat="48.29811" lon="2.42715">
        <ele>101</ele>
        <time>2017-05-07T08:08:07.000Z</time>
      </trkpt>
      <trkpt lat="48.298" lon="2.42726">
        <ele>101</ele>
        <time>2017-05-07T08:08:11.000Z</time>
      </trkpt>
      <trkpt lat="48.29798" lon="2.42728">
        <ele>100</ele>
        <time>2017-05-07T08:08:12.000Z</time>
      </trkpt>
      <trkpt lat="48.29794" lon="2.42732">
        <ele>100</ele>
        <time>2017-05-07T08:08:14.000Z</time>
      </trkpt>
      <trkpt lat="48.29789" lon="2.42736">
        <ele>100</ele>
        <time>2017-05-07T08:08:16.000Z</time>
      </trkpt>
      <trkpt lat="48.29787" lon="2.42741">
        <ele>100</ele>
        <time>2017-05-07T08:08:17.000Z</time>
      </trkpt>
      <trkpt lat="48.29784" lon="2.42749">
        <ele>100</ele>
        <time>2017-05-07T08:08:19.000Z</time>
      </trkpt>
      <trkpt lat="48.29784" lon="2.42752">
        <ele>104</ele>
        <time>2017-05-07T08:08:20.000Z</time>
      </trkpt>
      <trkpt lat="48.29784" lon="2.42762">
        <ele>105</ele>
        <time>2017-05-07T08:08:24.000Z</time>
      </trkpt>
      <trkpt lat="48.29784" lon="2.42765">
        <ele>105</ele>
        <time>2017-05-07T08:08:25.000Z</time>
      </trkpt>
      <trkpt lat="48.29787" lon="2.42778">
        <ele>105</ele>
        <time>2017-05-07T08:08:29.000Z</time>
      </trkpt>
      <trkpt lat="48.29788" lon="2.42782">
        <ele>106</ele>
        <time>2017-05-07T08:08:31.000Z</time>
      </trkpt>
      <trkpt lat="48.29787" lon="2.428">
        <ele>106</ele>
        <time>2017-05-07T08:08:38.000Z</time>
      </trkpt>
      <trkpt lat="48.29786" lon="2.42826">
        <ele>107</ele>
        <time>2017-05-07T08:08:44.000Z</time>
      </trkpt>
      <trkpt lat="48.29786" lon="2.42829">
        <ele>107</ele>
        <time>2017-05-07T08:08:45.000Z</time>
      </trkpt>
      <trkpt lat="48.29787" lon="2.42841">
        <ele>109</ele>
        <time>2017-05-07T08:08:49.000Z</time>
      </trkpt>
      <trkpt lat="48.29788" lon="2.42856">
        <ele>109</ele>
        <time>2017-05-07T08:08:55.000Z</time>
      </trkpt>
      <trkpt lat="48.29789" lon="2.4286">
        <ele>109</ele>
        <time>2017-05-07T08:08:56.000Z</time>
      </trkpt>
      <trkpt lat="48.29791" lon="2.4287">
        <ele>109</ele>
        <time>2017-05-07T08:09:01.000Z</time>
      </trkpt>
      <trkpt lat="48.29792" lon="2.42875">
        <ele>109</ele>
        <time>2017-05-07T08:09:02.000Z</time>
      </trkpt>
      <trkpt lat="48.29796" lon="2.42889">
        <ele>109</ele>
        <time>2017-05-07T08:09:08.000Z</time>
      </trkpt>
      <trkpt lat="48.29798" lon="2.42894">
        <ele>110</ele>
        <time>2017-05-07T08:09:10.000Z</time>
      </trkpt>
      <trkpt lat="48.29801" lon="2.42908">
        <ele>110</ele>
        <time>2017-05-07T08:09:14.000Z</time>
      </trkpt>
      <trkpt lat="48.29804" lon="2.42929">
        <ele>112</ele>
        <time>2017-05-07T08:09:21.000Z</time>
      </trkpt>
      <trkpt lat="48.29805" lon="2.42936">
        <ele>112</ele>
        <time>2017-05-07T08:09:23.000Z</time>
      </trkpt>
      <trkpt lat="48.29809" lon="2.42948">
        <ele>112</ele>
        <time>2017-05-07T08:09:27.000Z</time>
      </trkpt>
      <trkpt lat="48.29816" lon="2.42968">
        <ele>112</ele>
        <time>2017-05-07T08:09:33.000Z</time>
      </trkpt>
      <trkpt lat="48.29816" lon="2.42973">
        <ele>113</ele>
        <time>2017-05-07T08:09:34.000Z</time>
      </trkpt>
      <trkpt lat="48.29815" lon="2.42977">
        <ele>113</ele>
        <time>2017-05-07T08:09:35.000Z</time>
      </trkpt>
      <trkpt lat="48.29813" lon="2.42982">
        <ele>113</ele>
        <time>2017-05-07T08:09:37.000Z</time>
      </trkpt>
      <trkpt lat="48.29809" lon="2.42988">
        <ele>113</ele>
        <time>2017-05-07T08:09:39.000Z</time>
      </trkpt>
      <trkpt lat="48.29805" lon="2.4299">
        <ele>113</ele>
        <time>2017-05-07T08:09:41.000Z</time>
      </trkpt>
      <trkpt lat="48.29802" lon="2.42989">
        <ele>113</ele>
        <time>2017-05-07T08:09:42.000Z</time>
      </trkpt>
      <trkpt lat="48.29789" lon="2.42988">
        <ele>112</ele>
        <time>2017-05-07T08:09:47.000Z</time>
      </trkpt>
      <trkpt lat="48.29785" lon="2.42988">
        <ele>112</ele>
        <time>2017-05-07T08:09:48.000Z</time>
      </trkpt>
      <trkpt lat="48.29781" lon="2.42988">
        <ele>112</ele>
        <time>2017-05-07T08:09:49.000Z</time>
      </trkpt>
      <trkpt lat="48.29776" lon="2.42986">
        <ele>112</ele>
        <time>2017-05-07T08:09:50.000Z</time>
      </trkpt>
      <trkpt lat="48.29772" lon="2.42983">
        <ele>112</ele>
        <time>2017-05-07T08:09:51.000Z</time>
      </trkpt>
      <trkpt lat="48.29757" lon="2.42979">
        <ele>112</ele>
        <time>2017-05-07T08:09:54.000Z</time>
      </trkpt>
      <trkpt lat="48.29753" lon="2.42982">
        <ele>112</ele>
        <time>2017-05-07T08:09:55.000Z</time>
      </trkpt>
      <trkpt lat="48.29731" lon="2.42998">
        <ele>107</ele>
        <time>2017-05-07T08:10:01.000Z</time>
      </trkpt>
      <trkpt lat="48.29726" lon="2.42997">
        <ele>106</ele>
        <time>2017-05-07T08:10:02.000Z</time>
      </trkpt>
      <trkpt lat="48.29713" lon="2.42997">
        <ele>104</ele>
        <time>2017-05-07T08:10:05.000Z</time>
      </trkpt>
      <trkpt lat="48.29707" lon="2.43001">
        <ele>106</ele>
        <time>2017-05-07T08:10:07.000Z</time>
      </trkpt>
      <trkpt lat="48.29701" lon="2.43008">
        <ele>105</ele>
        <time>2017-05-07T08:10:09.000Z</time>
      </trkpt>
      <trkpt lat="48.29693" lon="2.43016">
        <ele>104</ele>
        <time>2017-05-07T08:10:11.000Z</time>
      </trkpt>
      <trkpt lat="48.29684" lon="2.43023">
        <ele>104</ele>
        <time>2017-05-07T08:10:13.000Z</time>
      </trkpt>
      <trkpt lat="48.2968" lon="2.43034">
        <ele>104</ele>
        <time>2017-05-07T08:10:15.000Z</time>
      </trkpt>
      <trkpt lat="48.29679" lon="2.43042">
        <ele>104</ele>
        <time>2017-05-07T08:10:16.000Z</time>
      </trkpt>
      <trkpt lat="48.29679" lon="2.43048">
        <ele>104</ele>
        <time>2017-05-07T08:10:17.000Z</time>
      </trkpt>
      <trkpt lat="48.2968" lon="2.43069">
        <ele>104</ele>
        <time>2017-05-07T08:10:20.000Z</time>
      </trkpt>
      <trkpt lat="48.2968" lon="2.43092">
        <ele>105</ele>
        <time>2017-05-07T08:10:23.000Z</time>
      </trkpt>
      <trkpt lat="48.29678" lon="2.43096">
        <ele>105</ele>
        <time>2017-05-07T08:10:24.000Z</time>
      </trkpt>
      <trkpt lat="48.29676" lon="2.43099">
        <ele>105</ele>
        <time>2017-05-07T08:10:25.000Z</time>
      </trkpt>
      <trkpt lat="48.29671" lon="2.43104">
        <ele>105</ele>
        <time>2017-05-07T08:10:27.000Z</time>
      </trkpt>
      <trkpt lat="48.2967" lon="2.43106">
        <ele>105</ele>
        <time>2017-05-07T08:10:28.000Z</time>
      </trkpt>
      <trkpt lat="48.29668" lon="2.43107">
        <ele>105</ele>
        <time>2017-05-07T08:10:29.000Z</time>
      </trkpt>
      <trkpt lat="48.29665" lon="2.43107">
        <ele>100</ele>
        <time>2017-05-07T08:10:30.000Z</time>
      </trkpt>
      <trkpt lat="48.29663" lon="2.43106">
        <ele>100</ele>
        <time>2017-05-07T08:10:31.000Z</time>
      </trkpt>
      <trkpt lat="48.29644" lon="2.43099">
        <ele>99</ele>
        <time>2017-05-07T08:10:33.000Z</time>
      </trkpt>
      <trkpt lat="48.2964" lon="2.43095">
        <ele>99</ele>
        <time>2017-05-07T08:10:34.000Z</time>
      </trkpt>
      <trkpt lat="48.29634" lon="2.4309">
        <ele>99</ele>
        <time>2017-05-07T08:10:35.000Z</time>
      </trkpt>
      <trkpt lat="48.29627" lon="2.43079">
        <ele>97</ele>
        <time>2017-05-07T08:10:37.000Z</time>
      </trkpt>
      <trkpt lat="48.29624" lon="2.43056">
        <ele>97</ele>
        <time>2017-05-07T08:10:40.000Z</time>
      </trkpt>
      <trkpt lat="48.29623" lon="2.4305">
        <ele>97</ele>
        <time>2017-05-07T08:10:41.000Z</time>
      </trkpt>
      <trkpt lat="48.29618" lon="2.43042">
        <ele>96</ele>
        <time>2017-05-07T08:10:44.000Z</time>
      </trkpt>
      <trkpt lat="48.29614" lon="2.43043">
        <ele>96</ele>
        <time>2017-05-07T08:10:48.000Z</time>
      </trkpt>
      <trkpt lat="48.29614" lon="2.43044">
        <ele>96</ele>
        <time>2017-05-07T08:10:49.000Z</time>
      </trkpt>
      <trkpt lat="48.29615" lon="2.43048">
        <ele>96</ele>
        <time>2017-05-07T08:10:54.000Z</time>
      </trkpt>
      <trkpt lat="48.29613" lon="2.43062">
        <ele>96</ele>
        <time>2017-05-07T08:10:58.000Z</time>
      </trkpt>
      <trkpt lat="48.2961" lon="2.43078">
        <ele>96</ele>
        <time>2017-05-07T08:11:02.000Z</time>
      </trkpt>
      <trkpt lat="48.29608" lon="2.43081">
        <ele>96</ele>
        <time>2017-05-07T08:11:03.000Z</time>
      </trkpt>
      <trkpt lat="48.29602" lon="2.43083">
        <ele>95</ele>
        <time>2017-05-07T08:11:06.000Z</time>
      </trkpt>
      <trkpt lat="48.29596" lon="2.43091">
        <ele>95</ele>
        <time>2017-05-07T08:11:10.000Z</time>
      </trkpt>
      <trkpt lat="48.29589" lon="2.43088">
        <ele>94</ele>
        <time>2017-05-07T08:11:12.000Z</time>
      </trkpt>
      <trkpt lat="48.29581" lon="2.43083">
        <ele>93</ele>
        <time>2017-05-07T08:11:14.000Z</time>
      </trkpt>
      <trkpt lat="48.29576" lon="2.43082">
        <ele>92</ele>
        <time>2017-05-07T08:11:15.000Z</time>
      </trkpt>
      <trkpt lat="48.29569" lon="2.43081">
        <ele>91</ele>
        <time>2017-05-07T08:11:17.000Z</time>
      </trkpt>
      <trkpt lat="48.29566" lon="2.4308">
        <ele>91</ele>
        <time>2017-05-07T08:11:18.000Z</time>
      </trkpt>
      <trkpt lat="48.29563" lon="2.43078">
        <ele>90</ele>
        <time>2017-05-07T08:11:19.000Z</time>
      </trkpt>
      <trkpt lat="48.29558" lon="2.43066">
        <ele>90</ele>
        <time>2017-05-07T08:11:22.000Z</time>
      </trkpt>
      <trkpt lat="48.29558" lon="2.43046">
        <ele>90</ele>
        <time>2017-05-07T08:11:26.000Z</time>
      </trkpt>
      <trkpt lat="48.2956" lon="2.43038">
        <ele>90</ele>
        <time>2017-05-07T08:11:27.000Z</time>
      </trkpt>
      <trkpt lat="48.2956" lon="2.43031">
        <ele>90</ele>
        <time>2017-05-07T08:11:30.000Z</time>
      </trkpt>
      <trkpt lat="48.29554" lon="2.43027">
        <ele>89</ele>
        <time>2017-05-07T08:11:36.000Z</time>
      </trkpt>
      <trkpt lat="48.29555" lon="2.4302">
        <ele>90</ele>
        <time>2017-05-07T08:11:40.000Z</time>
      </trkpt>
      <trkpt lat="48.29556" lon="2.4302">
        <ele>90</ele>
        <time>2017-05-07T08:11:41.000Z</time>
      </trkpt>
      <trkpt lat="48.29558" lon="2.43021">
        <ele>90</ele>
        <time>2017-05-07T08:11:43.000Z</time>
      </trkpt>
      <trkpt lat="48.29559" lon="2.43023">
        <ele>90</ele>
        <time>2017-05-07T08:11:45.000Z</time>
      </trkpt>
      <trkpt lat="48.29562" lon="2.43034">
        <ele>90</ele>
        <time>2017-05-07T08:11:51.000Z</time>
      </trkpt>
      <trkpt lat="48.29561" lon="2.4304">
        <ele>90</ele>
        <time>2017-05-07T08:11:57.000Z</time>
      </trkpt>
      <trkpt lat="48.29561" lon="2.4304">
        <ele>90</ele>
        <time>2017-05-07T08:12:03.000Z</time>
      </trkpt>
      <trkpt lat="48.29561" lon="2.4304">
        <ele>90</ele>
        <time>2017-05-07T08:12:06.000Z</time>
      </trkpt>
      <trkpt lat="48.29561" lon="2.4304">
        <ele>90</ele>
        <time>2017-05-07T08:12:08.000Z</time>
      </trkpt>
      <trkpt lat="48.29561" lon="2.4304">
        <ele>90</ele>
        <time>2017-05-07T08:12:20.000Z</time>
      </trkpt>
      <trkpt lat="48.29561" lon="2.4304">
        <ele>90</ele>
        <time>2017-05-07T08:12:31.000Z</time>
      </trkpt>
      <trkpt lat="48.29561" lon="2.4304">
        <ele>90</ele>
        <time>2017-05-07T08:12:40.000Z</time>
      </trkpt>
      <trkpt lat="48.2956" lon="2.43039">
        <ele>90</ele>
        <time>2017-05-07T08:12:47.000Z</time>
      </trkpt>
      <trkpt lat="48.2956" lon="2.43041">
        <ele>90</ele>
        <time>2017-05-07T08:12:53.000Z</time>
      </trkpt>
      <trkpt lat="48.29562" lon="2.43052">
        <ele>90</ele>
        <time>2017-05-07T08:13:00.000Z</time>
      </trkpt>
      <trkpt lat="48.29565" lon="2.43059">
        <ele>90</ele>
        <time>2017-05-07T08:13:02.000Z</time>
      </trkpt>
      <trkpt lat="48.29569" lon="2.43064">
        <ele>90</ele>
        <time>2017-05-07T08:13:04.000Z</time>
      </trkpt>
      <trkpt lat="48.29576" lon="2.43074">
        <ele>91</ele>
        <time>2017-05-07T08:13:09.000Z</time>
      </trkpt>
      <trkpt lat="48.29581" lon="2.43084">
        <ele>93</ele>
        <time>2017-05-07T08:13:15.000Z</time>
      </trkpt>
    </trkseg>
  </trk>
</gpx>